<?xml version="1.0" encoding="utf-8"?>
<gpx xmlns:xsi="http://www.w3.org/2001/XMLSchema-instance" xmlns:xsd="http://www.w3.org/2001/XMLSchema" version="1.1" creator="Shapelink.com" xmlns="http://www.topografix.com/GPX/1/1" xmlns:gpxtpx="http://www.garmin.com/xmlschemas/TrackPointExtension/v1">
  <metadata>
    <name>Cykling 26.26 km, 2012-04-01</name>
    <desc></desc>
    <author><name>Dennis Rehn</name></author> 
    <time>2012-04-01T18:22:36Z</time>
  </metadata>
  <trk>
    <name>Cykling 26.26 km, 2012-04-01</name>
    <trkseg>
      <trkpt lat="59.9966567517" lon="23.4305853961">
        <ele>29.8</ele>
        <time>2012-04-01T18:22:36Z</time>
      </trkpt>
      <trkpt lat="59.996690866" lon="23.4303378786">
        <ele>29.8</ele>
        <time>2012-04-01T18:22:40Z</time>
      </trkpt>
      <trkpt lat="59.9965667301" lon="23.4301229667">
        <ele>29</ele>
        <time>2012-04-01T18:22:46Z</time>
      </trkpt>
      <trkpt lat="59.9963930571" lon="23.4299479526">
        <ele>28.4</ele>
        <time>2012-04-01T18:22:49Z</time>
      </trkpt>
      <trkpt lat="59.9961632254" lon="23.4297520676">
        <ele>27.6</ele>
        <time>2012-04-01T18:22:52Z</time>
      </trkpt>
      <trkpt lat="59.9959983534" lon="23.4296034565">
        <ele>27</ele>
        <time>2012-04-01T18:22:54Z</time>
      </trkpt>
      <trkpt lat="59.9957576253" lon="23.429391143">
        <ele>26</ele>
        <time>2012-04-01T18:22:57Z</time>
      </trkpt>
      <trkpt lat="59.9955260334" lon="23.4291929949">
        <ele>25.2</ele>
        <time>2012-04-01T18:23:00Z</time>
      </trkpt>
      <trkpt lat="59.9952953635" lon="23.4289939247">
        <ele>24</ele>
        <time>2012-04-01T18:23:03Z</time>
      </trkpt>
      <trkpt lat="59.995068214" lon="23.428790496">
        <ele>23.6</ele>
        <time>2012-04-01T18:23:06Z</time>
      </trkpt>
      <trkpt lat="59.9948357001" lon="23.4285832954">
        <ele>22.2</ele>
        <time>2012-04-01T18:23:09Z</time>
      </trkpt>
      <trkpt lat="59.9945986599" lon="23.4283791962">
        <ele>21.4</ele>
        <time>2012-04-01T18:23:12Z</time>
      </trkpt>
      <trkpt lat="59.9943816526" lon="23.4281805452">
        <ele>20.4</ele>
        <time>2012-04-01T18:23:15Z</time>
      </trkpt>
      <trkpt lat="59.9941757093" lon="23.4279829">
        <ele>19.4</ele>
        <time>2012-04-01T18:23:18Z</time>
      </trkpt>
      <trkpt lat="59.9939860269" lon="23.4278165192">
        <ele>18.8</ele>
        <time>2012-04-01T18:23:21Z</time>
      </trkpt>
      <trkpt lat="59.993805816" lon="23.4276705904">
        <ele>18.2</ele>
        <time>2012-04-01T18:23:24Z</time>
      </trkpt>
      <trkpt lat="59.9937065743" lon="23.4275863523">
        <ele>18</ele>
        <time>2012-04-01T18:23:26Z</time>
      </trkpt>
      <trkpt lat="59.9935897306" lon="23.4273236635">
        <ele>17.6</ele>
        <time>2012-04-01T18:23:30Z</time>
      </trkpt>
      <trkpt lat="59.9936300476" lon="23.4270665906">
        <ele>17.4</ele>
        <time>2012-04-01T18:23:33Z</time>
      </trkpt>
      <trkpt lat="59.9936611444" lon="23.426984448">
        <ele>17.2</ele>
        <time>2012-04-01T18:23:34Z</time>
      </trkpt>
      <trkpt lat="59.9938172992" lon="23.4266154768">
        <ele>17</ele>
        <time>2012-04-01T18:23:38Z</time>
      </trkpt>
      <trkpt lat="59.9939398426" lon="23.4263005688">
        <ele>17</ele>
        <time>2012-04-01T18:23:41Z</time>
      </trkpt>
      <trkpt lat="59.9940922255" lon="23.4259332739">
        <ele>17</ele>
        <time>2012-04-01T18:23:44Z</time>
      </trkpt>
      <trkpt lat="59.994252236" lon="23.4255669011">
        <ele>16.8</ele>
        <time>2012-04-01T18:23:47Z</time>
      </trkpt>
      <trkpt lat="59.9944255737" lon="23.4251805793">
        <ele>16.8</ele>
        <time>2012-04-01T18:23:50Z</time>
      </trkpt>
      <trkpt lat="59.9945960616" lon="23.4248309703">
        <ele>16.8</ele>
        <time>2012-04-01T18:23:53Z</time>
      </trkpt>
      <trkpt lat="59.9947626937" lon="23.4245457342">
        <ele>16.8</ele>
        <time>2012-04-01T18:23:56Z</time>
      </trkpt>
      <trkpt lat="59.9948265638" lon="23.4244658547">
        <ele>16.8</ele>
        <time>2012-04-01T18:23:57Z</time>
      </trkpt>
      <trkpt lat="59.995018677" lon="23.4243151481">
        <ele>16.8</ele>
        <time>2012-04-01T18:24:00Z</time>
      </trkpt>
      <trkpt lat="59.9951345148" lon="23.4240563989">
        <ele>16.6</ele>
        <time>2012-04-01T18:24:03Z</time>
      </trkpt>
      <trkpt lat="59.995149267" lon="23.4239358672">
        <ele>16.4</ele>
        <time>2012-04-01T18:24:04Z</time>
      </trkpt>
      <trkpt lat="59.9951299048" lon="23.4238270701">
        <ele>16.2</ele>
        <time>2012-04-01T18:24:05Z</time>
      </trkpt>
      <trkpt lat="59.9950706447" lon="23.4234782993">
        <ele>15.8</ele>
        <time>2012-04-01T18:24:08Z</time>
      </trkpt>
      <trkpt lat="59.9950424816" lon="23.4233648921">
        <ele>15.8</ele>
        <time>2012-04-01T18:24:09Z</time>
      </trkpt>
      <trkpt lat="59.9949769351" lon="23.4231477171">
        <ele>15.6</ele>
        <time>2012-04-01T18:24:11Z</time>
      </trkpt>
      <trkpt lat="59.9949369534" lon="23.4222321622">
        <ele>14.4</ele>
        <time>2012-04-01T18:24:18Z</time>
      </trkpt>
      <trkpt lat="59.9949557289" lon="23.4218263106">
        <ele>14</ele>
        <time>2012-04-01T18:24:21Z</time>
      </trkpt>
      <trkpt lat="59.9949601713" lon="23.421396822">
        <ele>13.2</ele>
        <time>2012-04-01T18:24:24Z</time>
      </trkpt>
      <trkpt lat="59.9949559803" lon="23.4212710935">
        <ele>13</ele>
        <time>2012-04-01T18:24:25Z</time>
      </trkpt>
      <trkpt lat="59.9948841475" lon="23.4207248451">
        <ele>12.2</ele>
        <time>2012-04-01T18:24:29Z</time>
      </trkpt>
      <trkpt lat="59.9948011667" lon="23.4203496713">
        <ele>11.8</ele>
        <time>2012-04-01T18:24:32Z</time>
      </trkpt>
      <trkpt lat="59.9947150007" lon="23.4199893334">
        <ele>11.2</ele>
        <time>2012-04-01T18:24:35Z</time>
      </trkpt>
      <trkpt lat="59.9946295892" lon="23.4196217032">
        <ele>10.4</ele>
        <time>2012-04-01T18:24:38Z</time>
      </trkpt>
      <trkpt lat="59.9945489553" lon="23.4192532349">
        <ele>10</ele>
        <time>2012-04-01T18:24:41Z</time>
      </trkpt>
      <trkpt lat="59.9944591851" lon="23.4188686733">
        <ele>9.6</ele>
        <time>2012-04-01T18:24:44Z</time>
      </trkpt>
      <trkpt lat="59.9944065468" lon="23.4186540967">
        <ele>9.4</ele>
        <time>2012-04-01T18:24:46Z</time>
      </trkpt>
      <trkpt lat="59.9943795571" lon="23.4185463893">
        <ele>9.4</ele>
        <time>2012-04-01T18:24:47Z</time>
      </trkpt>
      <trkpt lat="59.9943126695" lon="23.4182861313">
        <ele>9.2</ele>
        <time>2012-04-01T18:24:50Z</time>
      </trkpt>
      <trkpt lat="59.9941756255" lon="23.4178506078">
        <ele>8.8</ele>
        <time>2012-04-01T18:24:57Z</time>
      </trkpt>
      <trkpt lat="59.9941433551" lon="23.417785648">
        <ele>8.8</ele>
        <time>2012-04-01T18:24:58Z</time>
      </trkpt>
      <trkpt lat="59.9940617993" lon="23.4176612607">
        <ele>8.8</ele>
        <time>2012-04-01T18:25:00Z</time>
      </trkpt>
      <trkpt lat="59.993822496" lon="23.4174278247">
        <ele>8.6</ele>
        <time>2012-04-01T18:25:05Z</time>
      </trkpt>
      <trkpt lat="59.9936447997" lon="23.4171862584">
        <ele>9.2</ele>
        <time>2012-04-01T18:25:10Z</time>
      </trkpt>
      <trkpt lat="59.9936193188" lon="23.4171249867">
        <ele>9.4</ele>
        <time>2012-04-01T18:25:11Z</time>
      </trkpt>
      <trkpt lat="59.9934148842" lon="23.4165463841">
        <ele>10.6</ele>
        <time>2012-04-01T18:25:19Z</time>
      </trkpt>
      <trkpt lat="59.9932839589" lon="23.4161448073">
        <ele>11.4</ele>
        <time>2012-04-01T18:25:23Z</time>
      </trkpt>
      <trkpt lat="59.9931709709" lon="23.4158105371">
        <ele>11.6</ele>
        <time>2012-04-01T18:25:26Z</time>
      </trkpt>
      <trkpt lat="59.9930581505" lon="23.4154686394">
        <ele>12</ele>
        <time>2012-04-01T18:25:29Z</time>
      </trkpt>
      <trkpt lat="59.9929662011" lon="23.4151013446">
        <ele>12.2</ele>
        <time>2012-04-01T18:25:32Z</time>
      </trkpt>
      <trkpt lat="59.9928868245" lon="23.4147239914">
        <ele>12.2</ele>
        <time>2012-04-01T18:25:35Z</time>
      </trkpt>
      <trkpt lat="59.9928631037" lon="23.4146069801">
        <ele>12.4</ele>
        <time>2012-04-01T18:25:36Z</time>
      </trkpt>
      <trkpt lat="59.9928220324" lon="23.4141141244">
        <ele>12.4</ele>
        <time>2012-04-01T18:25:40Z</time>
      </trkpt>
      <trkpt lat="59.992829157" lon="23.4139871386">
        <ele>12.4</ele>
        <time>2012-04-01T18:25:41Z</time>
      </trkpt>
      <trkpt lat="59.9928631876" lon="23.4135890822">
        <ele>12.6</ele>
        <time>2012-04-01T18:25:44Z</time>
      </trkpt>
      <trkpt lat="59.9928918537" lon="23.4132016708">
        <ele>12.6</ele>
        <time>2012-04-01T18:25:47Z</time>
      </trkpt>
      <trkpt lat="59.9929173346" lon="23.4127927179">
        <ele>12.6</ele>
        <time>2012-04-01T18:25:50Z</time>
      </trkpt>
      <trkpt lat="59.9929440729" lon="23.4123913925">
        <ele>12.6</ele>
        <time>2012-04-01T18:25:53Z</time>
      </trkpt>
      <trkpt lat="59.9929615072" lon="23.4119976946">
        <ele>12.6</ele>
        <time>2012-04-01T18:25:56Z</time>
      </trkpt>
      <trkpt lat="59.992963016" lon="23.4118659312">
        <ele>12.6</ele>
        <time>2012-04-01T18:25:57Z</time>
      </trkpt>
      <trkpt lat="59.9929252136" lon="23.4113820441">
        <ele>12.6</ele>
        <time>2012-04-01T18:26:01Z</time>
      </trkpt>
      <trkpt lat="59.9929081984" lon="23.4112726603">
        <ele>12.6</ele>
        <time>2012-04-01T18:26:02Z</time>
      </trkpt>
      <trkpt lat="59.9928100463" lon="23.4109165134">
        <ele>12.4</ele>
        <time>2012-04-01T18:26:07Z</time>
      </trkpt>
      <trkpt lat="59.9927861579" lon="23.4107972389">
        <ele>12</ele>
        <time>2012-04-01T18:26:09Z</time>
      </trkpt>
      <trkpt lat="59.9926560708" lon="23.4103778086">
        <ele>11.4</ele>
        <time>2012-04-01T18:26:14Z</time>
      </trkpt>
      <trkpt lat="59.9925326054" lon="23.410073881">
        <ele>11.2</ele>
        <time>2012-04-01T18:26:17Z</time>
      </trkpt>
      <trkpt lat="59.9924868402" lon="23.4099868768">
        <ele>11.2</ele>
        <time>2012-04-01T18:26:18Z</time>
      </trkpt>
      <trkpt lat="59.9923280871" lon="23.4097701209">
        <ele>11</ele>
        <time>2012-04-01T18:26:21Z</time>
      </trkpt>
      <trkpt lat="59.9922121654" lon="23.4096710468">
        <ele>10.8</ele>
        <time>2012-04-01T18:26:23Z</time>
      </trkpt>
      <trkpt lat="59.9919171225" lon="23.4095763314">
        <ele>10.8</ele>
        <time>2012-04-01T18:26:28Z</time>
      </trkpt>
      <trkpt lat="59.9916988578" lon="23.4094978768">
        <ele>10.6</ele>
        <time>2012-04-01T18:26:32Z</time>
      </trkpt>
      <trkpt lat="59.9915926592" lon="23.4094629243">
        <ele>10.6</ele>
        <time>2012-04-01T18:26:34Z</time>
      </trkpt>
      <trkpt lat="59.9913154697" lon="23.4095291413">
        <ele>10.6</ele>
        <time>2012-04-01T18:26:39Z</time>
      </trkpt>
      <trkpt lat="59.9912562097" lon="23.409575577">
        <ele>10.6</ele>
        <time>2012-04-01T18:26:40Z</time>
      </trkpt>
      <trkpt lat="59.9910723946" lon="23.4097347493">
        <ele>10.2</ele>
        <time>2012-04-01T18:26:43Z</time>
      </trkpt>
      <trkpt lat="59.9908866517" lon="23.4099054048">
        <ele>9.8</ele>
        <time>2012-04-01T18:26:46Z</time>
      </trkpt>
      <trkpt lat="59.9906978075" lon="23.410059967">
        <ele>9.4</ele>
        <time>2012-04-01T18:26:49Z</time>
      </trkpt>
      <trkpt lat="59.9906346918" lon="23.4100880464">
        <ele>9.2</ele>
        <time>2012-04-01T18:26:50Z</time>
      </trkpt>
      <trkpt lat="59.9904422434" lon="23.4100739648">
        <ele>9</ele>
        <time>2012-04-01T18:26:53Z</time>
      </trkpt>
      <trkpt lat="59.9902815624" lon="23.4098732183">
        <ele>9</ele>
        <time>2012-04-01T18:26:56Z</time>
      </trkpt>
      <trkpt lat="59.9902449334" lon="23.4097731384">
        <ele>8.8</ele>
        <time>2012-04-01T18:26:57Z</time>
      </trkpt>
      <trkpt lat="59.9901026088" lon="23.4092586574">
        <ele>8.8</ele>
        <time>2012-04-01T18:27:02Z</time>
      </trkpt>
      <trkpt lat="59.9900425106" lon="23.4090626047">
        <ele>8.6</ele>
        <time>2012-04-01T18:27:04Z</time>
      </trkpt>
      <trkpt lat="59.9898728609" lon="23.4086354631">
        <ele>8.6</ele>
        <time>2012-04-01T18:27:09Z</time>
      </trkpt>
      <trkpt lat="59.9898384113" lon="23.4085529014">
        <ele>8.6</ele>
        <time>2012-04-01T18:27:10Z</time>
      </trkpt>
      <trkpt lat="59.9894406901" lon="23.4080394262">
        <ele>8.6</ele>
        <time>2012-04-01T18:27:18Z</time>
      </trkpt>
      <trkpt lat="59.9892365071" lon="23.4078582933">
        <ele>8.6</ele>
        <time>2012-04-01T18:27:22Z</time>
      </trkpt>
      <trkpt lat="59.9891855451" lon="23.4078058226">
        <ele>8.6</ele>
        <time>2012-04-01T18:27:23Z</time>
      </trkpt>
      <trkpt lat="59.9890376046" lon="23.4076383523">
        <ele>8.4</ele>
        <time>2012-04-01T18:27:26Z</time>
      </trkpt>
      <trkpt lat="59.9889917556" lon="23.4075712971">
        <ele>8.4</ele>
        <time>2012-04-01T18:27:27Z</time>
      </trkpt>
      <trkpt lat="59.9888385344" lon="23.4072648548">
        <ele>8.4</ele>
        <time>2012-04-01T18:27:31Z</time>
      </trkpt>
      <trkpt lat="59.9887759217" lon="23.4071122204">
        <ele>8.4</ele>
        <time>2012-04-01T18:27:33Z</time>
      </trkpt>
      <trkpt lat="59.98857199" lon="23.4067636172">
        <ele>8.4</ele>
        <time>2012-04-01T18:27:38Z</time>
      </trkpt>
      <trkpt lat="59.988414075" lon="23.4065305165">
        <ele>8.4</ele>
        <time>2012-04-01T18:27:41Z</time>
      </trkpt>
      <trkpt lat="59.9883565752" lon="23.4064595219">
        <ele>8.4</ele>
        <time>2012-04-01T18:27:42Z</time>
      </trkpt>
      <trkpt lat="59.9881874285" lon="23.4063153532">
        <ele>8.4</ele>
        <time>2012-04-01T18:27:45Z</time>
      </trkpt>
      <trkpt lat="59.9879848379" lon="23.406321472">
        <ele>9</ele>
        <time>2012-04-01T18:27:49Z</time>
      </trkpt>
      <trkpt lat="59.9879027791" lon="23.4063947298">
        <ele>9.4</ele>
        <time>2012-04-01T18:27:51Z</time>
      </trkpt>
      <trkpt lat="59.9877840076" lon="23.4065489567">
        <ele>9.8</ele>
        <time>2012-04-01T18:27:55Z</time>
      </trkpt>
      <trkpt lat="59.987622656" lon="23.4067758548">
        <ele>10.8</ele>
        <time>2012-04-01T18:28:01Z</time>
      </trkpt>
      <trkpt lat="59.9874706922" lon="23.4069737514">
        <ele>11.4</ele>
        <time>2012-04-01T18:28:05Z</time>
      </trkpt>
      <trkpt lat="59.9873056526" lon="23.4071611707">
        <ele>11.8</ele>
        <time>2012-04-01T18:28:09Z</time>
      </trkpt>
      <trkpt lat="59.9871261961" lon="23.4073058423">
        <ele>12.8</ele>
        <time>2012-04-01T18:28:13Z</time>
      </trkpt>
      <trkpt lat="59.9870873041" lon="23.4073159006">
        <ele>13</ele>
        <time>2012-04-01T18:28:14Z</time>
      </trkpt>
      <trkpt lat="59.9868982084" lon="23.4073781781">
        <ele>13.4</ele>
        <time>2012-04-01T18:28:18Z</time>
      </trkpt>
      <trkpt lat="59.9867102024" lon="23.4073998872">
        <ele>13.8</ele>
        <time>2012-04-01T18:28:22Z</time>
      </trkpt>
      <trkpt lat="59.9865180054" lon="23.407413885">
        <ele>14</ele>
        <time>2012-04-01T18:28:26Z</time>
      </trkpt>
      <trkpt lat="59.9863731662" lon="23.4074238595">
        <ele>14.2</ele>
        <time>2012-04-01T18:28:29Z</time>
      </trkpt>
      <trkpt lat="59.9861800472" lon="23.4073833749">
        <ele>14.4</ele>
        <time>2012-04-01T18:28:33Z</time>
      </trkpt>
      <trkpt lat="59.9860832363" lon="23.4073756635">
        <ele>14.4</ele>
        <time>2012-04-01T18:28:35Z</time>
      </trkpt>
      <trkpt lat="59.9859274168" lon="23.4073190019">
        <ele>15</ele>
        <time>2012-04-01T18:28:38Z</time>
      </trkpt>
      <trkpt lat="59.9856771332" lon="23.407145748">
        <ele>15.6</ele>
        <time>2012-04-01T18:28:43Z</time>
      </trkpt>
      <trkpt lat="59.9855027059" lon="23.407034604">
        <ele>16</ele>
        <time>2012-04-01T18:28:47Z</time>
      </trkpt>
      <trkpt lat="59.9853074914" lon="23.4069610109">
        <ele>16.2</ele>
        <time>2012-04-01T18:28:51Z</time>
      </trkpt>
      <trkpt lat="59.9852026339" lon="23.4069319257">
        <ele>16.2</ele>
        <time>2012-04-01T18:28:53Z</time>
      </trkpt>
      <trkpt lat="59.9850104369" lon="23.4066726736">
        <ele>16.6</ele>
        <time>2012-04-01T18:28:58Z</time>
      </trkpt>
      <trkpt lat="59.9850087605" lon="23.4065167702">
        <ele>17</ele>
        <time>2012-04-01T18:29:00Z</time>
      </trkpt>
      <trkpt lat="59.9850184835" lon="23.406380732">
        <ele>17.2</ele>
        <time>2012-04-01T18:29:02Z</time>
      </trkpt>
      <trkpt lat="59.9850595548" lon="23.406063058">
        <ele>17.8</ele>
        <time>2012-04-01T18:29:08Z</time>
      </trkpt>
      <trkpt lat="59.9850892268" lon="23.4056477348">
        <ele>19</ele>
        <time>2012-04-01T18:29:14Z</time>
      </trkpt>
      <trkpt lat="59.985098363" lon="23.4052772549">
        <ele>19.8</ele>
        <time>2012-04-01T18:29:19Z</time>
      </trkpt>
      <trkpt lat="59.9850815992" lon="23.4049085351">
        <ele>20.8</ele>
        <time>2012-04-01T18:29:23Z</time>
      </trkpt>
      <trkpt lat="59.9850461438" lon="23.4045113168">
        <ele>21.4</ele>
        <time>2012-04-01T18:29:27Z</time>
      </trkpt>
      <trkpt lat="59.9850044858" lon="23.4041348019">
        <ele>21.8</ele>
        <time>2012-04-01T18:29:31Z</time>
      </trkpt>
      <trkpt lat="59.9849509254" lon="23.4037773139">
        <ele>22.8</ele>
        <time>2012-04-01T18:29:35Z</time>
      </trkpt>
      <trkpt lat="59.9849074233" lon="23.4034069177">
        <ele>23.4</ele>
        <time>2012-04-01T18:29:39Z</time>
      </trkpt>
      <trkpt lat="59.9848930065" lon="23.403316477">
        <ele>23.6</ele>
        <time>2012-04-01T18:29:40Z</time>
      </trkpt>
      <trkpt lat="59.9848818586" lon="23.4029455779">
        <ele>24</ele>
        <time>2012-04-01T18:29:44Z</time>
      </trkpt>
      <trkpt lat="59.9848223471" lon="23.4024373833">
        <ele>24.4</ele>
        <time>2012-04-01T18:29:50Z</time>
      </trkpt>
      <trkpt lat="59.9848091037" lon="23.4023514688">
        <ele>24.4</ele>
        <time>2012-04-01T18:29:51Z</time>
      </trkpt>
      <trkpt lat="59.9847661045" lon="23.4019849284">
        <ele>25</ele>
        <time>2012-04-01T18:29:55Z</time>
      </trkpt>
      <trkpt lat="59.9847100296" lon="23.4015551883">
        <ele>25.6</ele>
        <time>2012-04-01T18:29:59Z</time>
      </trkpt>
      <trkpt lat="59.9846541223" lon="23.4011712135">
        <ele>26</ele>
        <time>2012-04-01T18:30:02Z</time>
      </trkpt>
      <trkpt lat="59.984592683" lon="23.4007469217">
        <ele>26.2</ele>
        <time>2012-04-01T18:30:05Z</time>
      </trkpt>
      <trkpt lat="59.9845232809" lon="23.4002880965">
        <ele>26.4</ele>
        <time>2012-04-01T18:30:08Z</time>
      </trkpt>
      <trkpt lat="59.9844357738" lon="23.3998292713">
        <ele>26.2</ele>
        <time>2012-04-01T18:30:11Z</time>
      </trkpt>
      <trkpt lat="59.9843341014" lon="23.399387629">
        <ele>25.8</ele>
        <time>2012-04-01T18:30:14Z</time>
      </trkpt>
      <trkpt lat="59.984243074" lon="23.3990254471">
        <ele>25.6</ele>
        <time>2012-04-01T18:30:17Z</time>
      </trkpt>
      <trkpt lat="59.984127739" lon="23.3985834695">
        <ele>25.4</ele>
        <time>2012-04-01T18:30:20Z</time>
      </trkpt>
      <trkpt lat="59.9840983185" lon="23.398456819">
        <ele>25.2</ele>
        <time>2012-04-01T18:30:21Z</time>
      </trkpt>
      <trkpt lat="59.9840377174" lon="23.3982032665">
        <ele>25.2</ele>
        <time>2012-04-01T18:30:23Z</time>
      </trkpt>
      <trkpt lat="59.9839472767" lon="23.3978362231">
        <ele>24.8</ele>
        <time>2012-04-01T18:30:26Z</time>
      </trkpt>
      <trkpt lat="59.9838458557" lon="23.3974953313">
        <ele>24.2</ele>
        <time>2012-04-01T18:30:29Z</time>
      </trkpt>
      <trkpt lat="59.9837228094" lon="23.397207413">
        <ele>23.8</ele>
        <time>2012-04-01T18:30:32Z</time>
      </trkpt>
      <trkpt lat="59.9835904592" lon="23.3969581353">
        <ele>23.6</ele>
        <time>2012-04-01T18:30:35Z</time>
      </trkpt>
      <trkpt lat="59.9834275151" lon="23.3966681216">
        <ele>23.2</ele>
        <time>2012-04-01T18:30:39Z</time>
      </trkpt>
      <trkpt lat="59.9832955002" lon="23.3964676265">
        <ele>23.2</ele>
        <time>2012-04-01T18:30:42Z</time>
      </trkpt>
      <trkpt lat="59.9832042213" lon="23.396296049">
        <ele>23</ele>
        <time>2012-04-01T18:30:44Z</time>
      </trkpt>
      <trkpt lat="59.9827681948" lon="23.3958053726">
        <ele>22.6</ele>
        <time>2012-04-01T18:30:51Z</time>
      </trkpt>
      <trkpt lat="59.9825645985" lon="23.3956163607">
        <ele>22</ele>
        <time>2012-04-01T18:30:54Z</time>
      </trkpt>
      <trkpt lat="59.9823592419" lon="23.3954394188">
        <ele>21.6</ele>
        <time>2012-04-01T18:30:57Z</time>
      </trkpt>
      <trkpt lat="59.982149443" lon="23.395289299">
        <ele>21.4</ele>
        <time>2012-04-01T18:31:00Z</time>
      </trkpt>
      <trkpt lat="59.9819458466" lon="23.3951492375">
        <ele>20.6</ele>
        <time>2012-04-01T18:31:03Z</time>
      </trkpt>
      <trkpt lat="59.9818812222" lon="23.3951084176">
        <ele>20.4</ele>
        <time>2012-04-01T18:31:04Z</time>
      </trkpt>
      <trkpt lat="59.981601602" lon="23.394980426">
        <ele>19.8</ele>
        <time>2012-04-01T18:31:08Z</time>
      </trkpt>
      <trkpt lat="59.9813920545" lon="23.394898451">
        <ele>19.4</ele>
        <time>2012-04-01T18:31:11Z</time>
      </trkpt>
      <trkpt lat="59.9811995222" lon="23.3948239359">
        <ele>19.2</ele>
        <time>2012-04-01T18:31:14Z</time>
      </trkpt>
      <trkpt lat="59.9809515018" lon="23.3947422124">
        <ele>19</ele>
        <time>2012-04-01T18:31:18Z</time>
      </trkpt>
      <trkpt lat="59.9807677706" lon="23.3946876462">
        <ele>18.8</ele>
        <time>2012-04-01T18:31:21Z</time>
      </trkpt>
      <trkpt lat="59.9805811895" lon="23.3946481675">
        <ele>18.8</ele>
        <time>2012-04-01T18:31:24Z</time>
      </trkpt>
      <trkpt lat="59.9803933511" lon="23.3945924278">
        <ele>18.8</ele>
        <time>2012-04-01T18:31:27Z</time>
      </trkpt>
      <trkpt lat="59.9801964603" lon="23.3945138056">
        <ele>18.6</ele>
        <time>2012-04-01T18:31:30Z</time>
      </trkpt>
      <trkpt lat="59.979998396" lon="23.3944099539">
        <ele>18.6</ele>
        <time>2012-04-01T18:31:33Z</time>
      </trkpt>
      <trkpt lat="59.9797981524" lon="23.3943018274">
        <ele>18</ele>
        <time>2012-04-01T18:31:36Z</time>
      </trkpt>
      <trkpt lat="59.9795939693" lon="23.394185738">
        <ele>17.6</ele>
        <time>2012-04-01T18:31:39Z</time>
      </trkpt>
      <trkpt lat="59.9793937257" lon="23.3940712413">
        <ele>17.4</ele>
        <time>2012-04-01T18:31:42Z</time>
      </trkpt>
      <trkpt lat="59.9791959129" lon="23.3939688983">
        <ele>17</ele>
        <time>2012-04-01T18:31:45Z</time>
      </trkpt>
      <trkpt lat="59.9789940767" lon="23.3938942994">
        <ele>16.8</ele>
        <time>2012-04-01T18:31:48Z</time>
      </trkpt>
      <trkpt lat="59.9787947551" lon="23.3938433374">
        <ele>16.2</ele>
        <time>2012-04-01T18:31:51Z</time>
      </trkpt>
      <trkpt lat="59.9785971938" lon="23.3938107318">
        <ele>15.6</ele>
        <time>2012-04-01T18:31:54Z</time>
      </trkpt>
      <trkpt lat="59.9785324855" lon="23.3937940519">
        <ele>15.6</ele>
        <time>2012-04-01T18:31:55Z</time>
      </trkpt>
      <trkpt lat="59.9783461558" lon="23.3937141724">
        <ele>15.2</ele>
        <time>2012-04-01T18:31:58Z</time>
      </trkpt>
      <trkpt lat="59.9782852194" lon="23.3936984982">
        <ele>15.2</ele>
        <time>2012-04-01T18:31:59Z</time>
      </trkpt>
      <trkpt lat="59.9780455809" lon="23.3936643839">
        <ele>14.8</ele>
        <time>2012-04-01T18:32:03Z</time>
      </trkpt>
      <trkpt lat="59.9779831358" lon="23.393666647">
        <ele>14.8</ele>
        <time>2012-04-01T18:32:04Z</time>
      </trkpt>
      <trkpt lat="59.9778747578" lon="23.3936902001">
        <ele>14.8</ele>
        <time>2012-04-01T18:32:06Z</time>
      </trkpt>
      <trkpt lat="59.9777560701" lon="23.393803691">
        <ele>14.6</ele>
        <time>2012-04-01T18:32:09Z</time>
      </trkpt>
      <trkpt lat="59.9777378814" lon="23.3941393023">
        <ele>14.6</ele>
        <time>2012-04-01T18:32:13Z</time>
      </trkpt>
      <trkpt lat="59.977788508" lon="23.3943252967">
        <ele>14.6</ele>
        <time>2012-04-01T18:32:15Z</time>
      </trkpt>
      <trkpt lat="59.9778906834" lon="23.3947771649">
        <ele>14.6</ele>
        <time>2012-04-01T18:32:19Z</time>
      </trkpt>
      <trkpt lat="59.9779638574" lon="23.3951727906">
        <ele>14</ele>
        <time>2012-04-01T18:32:22Z</time>
      </trkpt>
      <trkpt lat="59.9780161604" lon="23.3955998484">
        <ele>13.6</ele>
        <time>2012-04-01T18:32:25Z</time>
      </trkpt>
      <trkpt lat="59.9780446589" lon="23.3960574163">
        <ele>13.2</ele>
        <time>2012-04-01T18:32:28Z</time>
      </trkpt>
      <trkpt lat="59.9780480117" lon="23.3965184208">
        <ele>12.8</ele>
        <time>2012-04-01T18:32:31Z</time>
      </trkpt>
      <trkpt lat="59.9780373667" lon="23.3969736418">
        <ele>12</ele>
        <time>2012-04-01T18:32:34Z</time>
      </trkpt>
      <trkpt lat="59.9780072756" lon="23.3974135239">
        <ele>11.6</ele>
        <time>2012-04-01T18:32:37Z</time>
      </trkpt>
      <trkpt lat="59.9779740833" lon="23.3978265001">
        <ele>11.2</ele>
        <time>2012-04-01T18:32:40Z</time>
      </trkpt>
      <trkpt lat="59.9779341855" lon="23.3982270711">
        <ele>10.6</ele>
        <time>2012-04-01T18:32:43Z</time>
      </trkpt>
      <trkpt lat="59.9779253845" lon="23.3983667136">
        <ele>10.4</ele>
        <time>2012-04-01T18:32:44Z</time>
      </trkpt>
      <trkpt lat="59.9779605884" lon="23.3987597409">
        <ele>9.8</ele>
        <time>2012-04-01T18:32:47Z</time>
      </trkpt>
      <trkpt lat="59.977980705" lon="23.3988989642">
        <ele>9.6</ele>
        <time>2012-04-01T18:32:48Z</time>
      </trkpt>
      <trkpt lat="59.9781790208" lon="23.3992901475">
        <ele>9.2</ele>
        <time>2012-04-01T18:32:52Z</time>
      </trkpt>
      <trkpt lat="59.9783122092" lon="23.3994038899">
        <ele>9</ele>
        <time>2012-04-01T18:32:54Z</time>
      </trkpt>
      <trkpt lat="59.9785041547" lon="23.3995688457">
        <ele>8.6</ele>
        <time>2012-04-01T18:32:57Z</time>
      </trkpt>
      <trkpt lat="59.9786877183" lon="23.3997203904">
        <ele>8</ele>
        <time>2012-04-01T18:33:00Z</time>
      </trkpt>
      <trkpt lat="59.9788640734" lon="23.3998699235">
        <ele>7.4</ele>
        <time>2012-04-01T18:33:03Z</time>
      </trkpt>
      <trkpt lat="59.9790331364" lon="23.4000102365">
        <ele>7</ele>
        <time>2012-04-01T18:33:06Z</time>
      </trkpt>
      <trkpt lat="59.9792408399" lon="23.4002078817">
        <ele>6.8</ele>
        <time>2012-04-01T18:33:10Z</time>
      </trkpt>
      <trkpt lat="59.9794508903" lon="23.4003759388">
        <ele>6.4</ele>
        <time>2012-04-01T18:33:14Z</time>
      </trkpt>
      <trkpt lat="59.9796050334" lon="23.4005140725">
        <ele>6.4</ele>
        <time>2012-04-01T18:33:17Z</time>
      </trkpt>
      <trkpt lat="59.9798605975" lon="23.4007368634">
        <ele>6.2</ele>
        <time>2012-04-01T18:33:22Z</time>
      </trkpt>
      <trkpt lat="59.9800621822" lon="23.4009221034">
        <ele>6.2</ele>
        <time>2012-04-01T18:33:26Z</time>
      </trkpt>
      <trkpt lat="59.9803076881" lon="23.4011732252">
        <ele>6.2</ele>
        <time>2012-04-01T18:33:31Z</time>
      </trkpt>
      <trkpt lat="59.9805023158" lon="23.4013675176">
        <ele>6.2</ele>
        <time>2012-04-01T18:33:35Z</time>
      </trkpt>
      <trkpt lat="59.9807014697" lon="23.4015691861">
        <ele>6.2</ele>
        <time>2012-04-01T18:33:39Z</time>
      </trkpt>
      <trkpt lat="59.9809038926" lon="23.4017960842">
        <ele>6.4</ele>
        <time>2012-04-01T18:33:43Z</time>
      </trkpt>
      <trkpt lat="59.9810971792" lon="23.4020470382">
        <ele>7</ele>
        <time>2012-04-01T18:33:47Z</time>
      </trkpt>
      <trkpt lat="59.981282084" lon="23.4022777919">
        <ele>7.4</ele>
        <time>2012-04-01T18:33:51Z</time>
      </trkpt>
      <trkpt lat="59.9814590259" lon="23.4025165923">
        <ele>7.6</ele>
        <time>2012-04-01T18:33:55Z</time>
      </trkpt>
      <trkpt lat="59.9816340399" lon="23.4027641098">
        <ele>7.8</ele>
        <time>2012-04-01T18:33:59Z</time>
      </trkpt>
      <trkpt lat="59.9818057851" lon="23.4030199254">
        <ele>8.4</ele>
        <time>2012-04-01T18:34:03Z</time>
      </trkpt>
      <trkpt lat="59.9819768597" lon="23.4032878947">
        <ele>9</ele>
        <time>2012-04-01T18:34:07Z</time>
      </trkpt>
      <trkpt lat="59.9821413963" lon="23.4035533495">
        <ele>9.4</ele>
        <time>2012-04-01T18:34:11Z</time>
      </trkpt>
      <trkpt lat="59.9823124709" lon="23.403855517">
        <ele>9.6</ele>
        <time>2012-04-01T18:34:15Z</time>
      </trkpt>
      <trkpt lat="59.9824791869" lon="23.4041627136">
        <ele>9.8</ele>
        <time>2012-04-01T18:34:19Z</time>
      </trkpt>
      <trkpt lat="59.9826380239" lon="23.4045005042">
        <ele>10.2</ele>
        <time>2012-04-01T18:34:23Z</time>
      </trkpt>
      <trkpt lat="59.9828010519" lon="23.4048389653">
        <ele>11</ele>
        <time>2012-04-01T18:34:27Z</time>
      </trkpt>
      <trkpt lat="59.9829266127" lon="23.4051054259">
        <ele>11.2</ele>
        <time>2012-04-01T18:34:30Z</time>
      </trkpt>
      <trkpt lat="59.9830507487" lon="23.4053712998">
        <ele>11.6</ele>
        <time>2012-04-01T18:34:33Z</time>
      </trkpt>
      <trkpt lat="59.9831730406" lon="23.4056546918">
        <ele>11.6</ele>
        <time>2012-04-01T18:34:36Z</time>
      </trkpt>
      <trkpt lat="59.9832944105" lon="23.4059469687">
        <ele>11.8</ele>
        <time>2012-04-01T18:34:39Z</time>
      </trkpt>
      <trkpt lat="59.9834168701" lon="23.4062546682">
        <ele>11.8</ele>
        <time>2012-04-01T18:34:42Z</time>
      </trkpt>
      <trkpt lat="59.9835398325" lon="23.4065725937">
        <ele>12</ele>
        <time>2012-04-01T18:34:45Z</time>
      </trkpt>
      <trkpt lat="59.9836531558" lon="23.406910049">
        <ele>12</ele>
        <time>2012-04-01T18:34:48Z</time>
      </trkpt>
      <trkpt lat="59.9837684908" lon="23.4072704707">
        <ele>12</ele>
        <time>2012-04-01T18:34:51Z</time>
      </trkpt>
      <trkpt lat="59.98387997" lon="23.4076376817">
        <ele>12</ele>
        <time>2012-04-01T18:34:54Z</time>
      </trkpt>
      <trkpt lat="59.9839860011" lon="23.408020986">
        <ele>12</ele>
        <time>2012-04-01T18:34:57Z</time>
      </trkpt>
      <trkpt lat="59.9840863324" lon="23.4083949864">
        <ele>12.2</ele>
        <time>2012-04-01T18:35:00Z</time>
      </trkpt>
      <trkpt lat="59.9841793715" lon="23.4088031849">
        <ele>12.2</ele>
        <time>2012-04-01T18:35:03Z</time>
      </trkpt>
      <trkpt lat="59.9842113904" lon="23.4089496167">
        <ele>12.2</ele>
        <time>2012-04-01T18:35:04Z</time>
      </trkpt>
      <trkpt lat="59.9842672976" lon="23.4092108805">
        <ele>12.2</ele>
        <time>2012-04-01T18:35:06Z</time>
      </trkpt>
      <trkpt lat="59.9843471772" lon="23.4096237729">
        <ele>12.2</ele>
        <time>2012-04-01T18:35:09Z</time>
      </trkpt>
      <trkpt lat="59.9844185909" lon="23.4100415268">
        <ele>12.2</ele>
        <time>2012-04-01T18:35:12Z</time>
      </trkpt>
      <trkpt lat="59.9844748335" lon="23.4104716859">
        <ele>12.2</ele>
        <time>2012-04-01T18:35:15Z</time>
      </trkpt>
      <trkpt lat="59.9845200957" lon="23.4109389769">
        <ele>12.2</ele>
        <time>2012-04-01T18:35:18Z</time>
      </trkpt>
      <trkpt lat="59.9845578981" lon="23.4114174157">
        <ele>12.2</ele>
        <time>2012-04-01T18:35:21Z</time>
      </trkpt>
      <trkpt lat="59.9845867319" lon="23.4118889814">
        <ele>12.2</ele>
        <time>2012-04-01T18:35:24Z</time>
      </trkpt>
      <trkpt lat="59.9846065131" lon="23.4123329706">
        <ele>12.2</ele>
        <time>2012-04-01T18:35:27Z</time>
      </trkpt>
      <trkpt lat="59.9846285575" lon="23.4127828272">
        <ele>12.2</ele>
        <time>2012-04-01T18:35:30Z</time>
      </trkpt>
      <trkpt lat="59.9846508534" lon="23.4132504534">
        <ele>12.2</ele>
        <time>2012-04-01T18:35:33Z</time>
      </trkpt>
      <trkpt lat="59.9846685392" lon="23.4137239469">
        <ele>12.2</ele>
        <time>2012-04-01T18:35:36Z</time>
      </trkpt>
      <trkpt lat="59.9846845486" lon="23.4142093428">
        <ele>12.2</ele>
        <time>2012-04-01T18:35:39Z</time>
      </trkpt>
      <trkpt lat="59.9847072636" lon="23.4146918888">
        <ele>12.2</ele>
        <time>2012-04-01T18:35:42Z</time>
      </trkpt>
      <trkpt lat="59.9847492569" lon="23.4151640412">
        <ele>11.6</ele>
        <time>2012-04-01T18:35:45Z</time>
      </trkpt>
      <trkpt lat="59.9847883165" lon="23.4154798712">
        <ele>11.4</ele>
        <time>2012-04-01T18:35:47Z</time>
      </trkpt>
      <trkpt lat="59.9848205869" lon="23.4161263671">
        <ele>10.8</ele>
        <time>2012-04-01T18:35:51Z</time>
      </trkpt>
      <trkpt lat="59.9848234367" lon="23.416603884">
        <ele>10.6</ele>
        <time>2012-04-01T18:35:54Z</time>
      </trkpt>
      <trkpt lat="59.9848160606" lon="23.4170649723">
        <ele>10.6</ele>
        <time>2012-04-01T18:35:57Z</time>
      </trkpt>
      <trkpt lat="59.9848060024" lon="23.4175144098">
        <ele>10</ele>
        <time>2012-04-01T18:36:00Z</time>
      </trkpt>
      <trkpt lat="59.9847947706" lon="23.4178976302">
        <ele>9.4</ele>
        <time>2012-04-01T18:36:03Z</time>
      </trkpt>
      <trkpt lat="59.984782533" lon="23.4183429606">
        <ele>9.2</ele>
        <time>2012-04-01T18:36:06Z</time>
      </trkpt>
      <trkpt lat="59.9847648472" lon="23.4187571103">
        <ele>8.8</ele>
        <time>2012-04-01T18:36:10Z</time>
      </trkpt>
      <trkpt lat="59.984790412" lon="23.4193596851">
        <ele>8.4</ele>
        <time>2012-04-01T18:36:17Z</time>
      </trkpt>
      <trkpt lat="59.9847945192" lon="23.4194777022">
        <ele>8.4</ele>
        <time>2012-04-01T18:36:18Z</time>
      </trkpt>
      <trkpt lat="59.9847407912" lon="23.4199690492">
        <ele>8.2</ele>
        <time>2012-04-01T18:36:22Z</time>
      </trkpt>
      <trkpt lat="59.9846963671" lon="23.4203483302">
        <ele>8.2</ele>
        <time>2012-04-01T18:36:25Z</time>
      </trkpt>
      <trkpt lat="59.9846470815" lon="23.4206957599">
        <ele>8.2</ele>
        <time>2012-04-01T18:36:28Z</time>
      </trkpt>
      <trkpt lat="59.9846284737" lon="23.4208071554">
        <ele>8.2</ele>
        <time>2012-04-01T18:36:29Z</time>
      </trkpt>
      <trkpt lat="59.984522275" lon="23.4213271684">
        <ele>8.2</ele>
        <time>2012-04-01T18:36:34Z</time>
      </trkpt>
      <trkpt lat="59.9844526215" lon="23.4217465987">
        <ele>8</ele>
        <time>2012-04-01T18:36:38Z</time>
      </trkpt>
      <trkpt lat="59.9843863206" lon="23.4221858941">
        <ele>8</ele>
        <time>2012-04-01T18:36:42Z</time>
      </trkpt>
      <trkpt lat="59.9843118894" lon="23.4226226749">
        <ele>8</ele>
        <time>2012-04-01T18:36:46Z</time>
      </trkpt>
      <trkpt lat="59.9842394697" lon="23.4230545942">
        <ele>8</ele>
        <time>2012-04-01T18:36:50Z</time>
      </trkpt>
      <trkpt lat="59.9841631106" lon="23.4234817358">
        <ele>8</ele>
        <time>2012-04-01T18:36:54Z</time>
      </trkpt>
      <trkpt lat="59.9840872544" lon="23.4239116435">
        <ele>8</ele>
        <time>2012-04-01T18:36:58Z</time>
      </trkpt>
      <trkpt lat="59.9840268209" lon="23.4242440696">
        <ele>8</ele>
        <time>2012-04-01T18:37:01Z</time>
      </trkpt>
      <trkpt lat="59.9840040222" lon="23.4246841194">
        <ele>8</ele>
        <time>2012-04-01T18:37:04Z</time>
      </trkpt>
      <trkpt lat="59.9840016752" lon="23.424813033">
        <ele>8</ele>
        <time>2012-04-01T18:37:05Z</time>
      </trkpt>
      <trkpt lat="59.9839510486" lon="23.4253029551">
        <ele>8</ele>
        <time>2012-04-01T18:37:09Z</time>
      </trkpt>
      <trkpt lat="59.9837496315" lon="23.4253995984">
        <ele>8</ele>
        <time>2012-04-01T18:37:13Z</time>
      </trkpt>
      <trkpt lat="59.9836436005" lon="23.4253895401">
        <ele>8</ele>
        <time>2012-04-01T18:37:15Z</time>
      </trkpt>
      <trkpt lat="59.9834885353" lon="23.4254130094">
        <ele>8</ele>
        <time>2012-04-01T18:37:18Z</time>
      </trkpt>
      <trkpt lat="59.9833828396" lon="23.425481741">
        <ele>8</ele>
        <time>2012-04-01T18:37:20Z</time>
      </trkpt>
      <trkpt lat="59.9833227413" lon="23.425646613">
        <ele>8</ele>
        <time>2012-04-01T18:37:22Z</time>
      </trkpt>
      <trkpt lat="59.9833474679" lon="23.4259338607">
        <ele>8</ele>
        <time>2012-04-01T18:37:25Z</time>
      </trkpt>
      <trkpt lat="59.9833726975" lon="23.4260229603">
        <ele>8</ele>
        <time>2012-04-01T18:37:26Z</time>
      </trkpt>
      <trkpt lat="59.9833913053" lon="23.4261187654">
        <ele>8</ele>
        <time>2012-04-01T18:37:27Z</time>
      </trkpt>
      <trkpt lat="59.9833757149" lon="23.4264354336">
        <ele>8</ele>
        <time>2012-04-01T18:37:30Z</time>
      </trkpt>
      <trkpt lat="59.9833542573" lon="23.4265445659">
        <ele>8</ele>
        <time>2012-04-01T18:37:31Z</time>
      </trkpt>
      <trkpt lat="59.9832896328" lon="23.4268869665">
        <ele>8</ele>
        <time>2012-04-01T18:37:34Z</time>
      </trkpt>
      <trkpt lat="59.9832306243" lon="23.4272409342">
        <ele>8</ele>
        <time>2012-04-01T18:37:37Z</time>
      </trkpt>
      <trkpt lat="59.9831694364" lon="23.4275977516">
        <ele>8</ele>
        <time>2012-04-01T18:37:40Z</time>
      </trkpt>
      <trkpt lat="59.983105231" lon="23.4279581733">
        <ele>8</ele>
        <time>2012-04-01T18:37:43Z</time>
      </trkpt>
      <trkpt lat="59.9830465577" lon="23.4283279828">
        <ele>8</ele>
        <time>2012-04-01T18:37:46Z</time>
      </trkpt>
      <trkpt lat="59.9829847831" lon="23.4286944394">
        <ele>8</ele>
        <time>2012-04-01T18:37:49Z</time>
      </trkpt>
      <trkpt lat="59.9829266966" lon="23.4290583815">
        <ele>8</ele>
        <time>2012-04-01T18:37:52Z</time>
      </trkpt>
      <trkpt lat="59.9828686938" lon="23.4294279395">
        <ele>8</ele>
        <time>2012-04-01T18:37:55Z</time>
      </trkpt>
      <trkpt lat="59.9828127865" lon="23.4298015208">
        <ele>8</ele>
        <time>2012-04-01T18:37:58Z</time>
      </trkpt>
      <trkpt lat="59.9827901554" lon="23.4299240642">
        <ele>8</ele>
        <time>2012-04-01T18:37:59Z</time>
      </trkpt>
      <trkpt lat="59.9827232678" lon="23.4301399819">
        <ele>8</ele>
        <time>2012-04-01T18:38:01Z</time>
      </trkpt>
      <trkpt lat="59.9825760817" lon="23.4303942049">
        <ele>8</ele>
        <time>2012-04-01T18:38:04Z</time>
      </trkpt>
      <trkpt lat="59.9825267123" lon="23.4306426445">
        <ele>8</ele>
        <time>2012-04-01T18:38:07Z</time>
      </trkpt>
      <trkpt lat="59.9825517742" lon="23.4307136392">
        <ele>8</ele>
        <time>2012-04-01T18:38:08Z</time>
      </trkpt>
      <trkpt lat="59.9826496748" lon="23.4311344944">
        <ele>8</ele>
        <time>2012-04-01T18:38:15Z</time>
      </trkpt>
      <trkpt lat="59.982636599" lon="23.4312225043">
        <ele>8</ele>
        <time>2012-04-01T18:38:16Z</time>
      </trkpt>
      <trkpt lat="59.9825590664" lon="23.4317577724">
        <ele>8</ele>
        <time>2012-04-01T18:38:21Z</time>
      </trkpt>
      <trkpt lat="59.9825440628" lon="23.4318666533">
        <ele>8</ele>
        <time>2012-04-01T18:38:22Z</time>
      </trkpt>
      <trkpt lat="59.9825025724" lon="23.4322274103">
        <ele>8</ele>
        <time>2012-04-01T18:38:25Z</time>
      </trkpt>
      <trkpt lat="59.9824536221" lon="23.4326119719">
        <ele>8</ele>
        <time>2012-04-01T18:38:28Z</time>
      </trkpt>
      <trkpt lat="59.982408276" lon="23.4330119561">
        <ele>8</ele>
        <time>2012-04-01T18:38:31Z</time>
      </trkpt>
      <trkpt lat="59.9823602478" lon="23.4334157961">
        <ele>8</ele>
        <time>2012-04-01T18:38:34Z</time>
      </trkpt>
      <trkpt lat="59.9823162428" lon="23.4338206418">
        <ele>8</ele>
        <time>2012-04-01T18:38:37Z</time>
      </trkpt>
      <trkpt lat="59.9822744171" lon="23.4342238951">
        <ele>8</ele>
        <time>2012-04-01T18:38:40Z</time>
      </trkpt>
      <trkpt lat="59.9822376206" lon="23.4346292437">
        <ele>8</ele>
        <time>2012-04-01T18:38:43Z</time>
      </trkpt>
      <trkpt lat="59.9822043444" lon="23.4350399568">
        <ele>8</ele>
        <time>2012-04-01T18:38:46Z</time>
      </trkpt>
      <trkpt lat="59.9821724932" lon="23.4354519272">
        <ele>8</ele>
        <time>2012-04-01T18:38:49Z</time>
      </trkpt>
      <trkpt lat="59.9821462579" lon="23.4358672504">
        <ele>8</ele>
        <time>2012-04-01T18:38:52Z</time>
      </trkpt>
      <trkpt lat="59.9821216151" lon="23.4362849204">
        <ele>8</ele>
        <time>2012-04-01T18:38:55Z</time>
      </trkpt>
      <trkpt lat="59.9821002412" lon="23.4366968908">
        <ele>8</ele>
        <time>2012-04-01T18:38:58Z</time>
      </trkpt>
      <trkpt lat="59.9820851538" lon="23.4370931871">
        <ele>8</ele>
        <time>2012-04-01T18:39:01Z</time>
      </trkpt>
      <trkpt lat="59.9820718266" lon="23.4375080073">
        <ele>8</ele>
        <time>2012-04-01T18:39:04Z</time>
      </trkpt>
      <trkpt lat="59.9820602596" lon="23.4379153676">
        <ele>8</ele>
        <time>2012-04-01T18:39:07Z</time>
      </trkpt>
      <trkpt lat="59.9820567392" lon="23.4383316966">
        <ele>8</ele>
        <time>2012-04-01T18:39:10Z</time>
      </trkpt>
      <trkpt lat="59.982049866" lon="23.4387390569">
        <ele>8</ele>
        <time>2012-04-01T18:39:13Z</time>
      </trkpt>
      <trkpt lat="59.9820446692" lon="23.4391459982">
        <ele>8</ele>
        <time>2012-04-01T18:39:16Z</time>
      </trkpt>
      <trkpt lat="59.9820454236" lon="23.439544809">
        <ele>8</ele>
        <time>2012-04-01T18:39:19Z</time>
      </trkpt>
      <trkpt lat="59.9820468485" lon="23.4399400994">
        <ele>8</ele>
        <time>2012-04-01T18:39:22Z</time>
      </trkpt>
      <trkpt lat="59.9820533026" lon="23.4403254992">
        <ele>8</ele>
        <time>2012-04-01T18:39:25Z</time>
      </trkpt>
      <trkpt lat="59.9820647858" lon="23.4407088034">
        <ele>8</ele>
        <time>2012-04-01T18:39:28Z</time>
      </trkpt>
      <trkpt lat="59.9820787836" lon="23.4410963825">
        <ele>8</ele>
        <time>2012-04-01T18:39:31Z</time>
      </trkpt>
      <trkpt lat="59.9820957988" lon="23.4414896612">
        <ele>8</ele>
        <time>2012-04-01T18:39:34Z</time>
      </trkpt>
      <trkpt lat="59.9821159154" lon="23.4418925792">
        <ele>8</ele>
        <time>2012-04-01T18:39:37Z</time>
      </trkpt>
      <trkpt lat="59.9821374569" lon="23.4423015321">
        <ele>8</ele>
        <time>2012-04-01T18:39:40Z</time>
      </trkpt>
      <trkpt lat="59.9821615967" lon="23.4427157656">
        <ele>8</ele>
        <time>2012-04-01T18:39:43Z</time>
      </trkpt>
      <trkpt lat="59.9821814618" lon="23.4431362017">
        <ele>8</ele>
        <time>2012-04-01T18:39:46Z</time>
      </trkpt>
      <trkpt lat="59.9822095412" lon="23.4435552967">
        <ele>7.6</ele>
        <time>2012-04-01T18:39:49Z</time>
      </trkpt>
      <trkpt lat="59.9822371176" lon="23.443973302">
        <ele>7.2</ele>
        <time>2012-04-01T18:39:52Z</time>
      </trkpt>
      <trkpt lat="59.9822610899" lon="23.4443866135">
        <ele>6.8</ele>
        <time>2012-04-01T18:39:55Z</time>
      </trkpt>
      <trkpt lat="59.9822807035" lon="23.4447993383">
        <ele>6.6</ele>
        <time>2012-04-01T18:39:58Z</time>
      </trkpt>
      <trkpt lat="59.9823018259" lon="23.4452122307">
        <ele>6.4</ele>
        <time>2012-04-01T18:40:01Z</time>
      </trkpt>
      <trkpt lat="59.9823181706" lon="23.4456280567">
        <ele>6.4</ele>
        <time>2012-04-01T18:40:04Z</time>
      </trkpt>
      <trkpt lat="59.982335605" lon="23.4460416197">
        <ele>6.2</ele>
        <time>2012-04-01T18:40:07Z</time>
      </trkpt>
      <trkpt lat="59.9823542128" lon="23.4465951604">
        <ele>6.2</ele>
        <time>2012-04-01T18:40:11Z</time>
      </trkpt>
      <trkpt lat="59.9823673724" lon="23.4470013472">
        <ele>6.2</ele>
        <time>2012-04-01T18:40:14Z</time>
      </trkpt>
      <trkpt lat="59.9823788556" lon="23.4474672132">
        <ele>6.2</ele>
        <time>2012-04-01T18:40:17Z</time>
      </trkpt>
      <trkpt lat="59.9823900035" lon="23.4479521061">
        <ele>6.2</ele>
        <time>2012-04-01T18:40:21Z</time>
      </trkpt>
      <trkpt lat="59.9823991398" lon="23.4483639089">
        <ele>6</ele>
        <time>2012-04-01T18:40:24Z</time>
      </trkpt>
      <trkpt lat="59.9824169932" lon="23.449014512">
        <ele>6</ele>
        <time>2012-04-01T18:40:29Z</time>
      </trkpt>
      <trkpt lat="59.9824364392" lon="23.44939329">
        <ele>6</ele>
        <time>2012-04-01T18:40:32Z</time>
      </trkpt>
      <trkpt lat="59.9824584836" lon="23.4497693859">
        <ele>6</ele>
        <time>2012-04-01T18:40:35Z</time>
      </trkpt>
      <trkpt lat="59.9824662788" lon="23.4498946953">
        <ele>6</ele>
        <time>2012-04-01T18:40:36Z</time>
      </trkpt>
      <trkpt lat="59.9824963698" lon="23.4502761556">
        <ele>6</ele>
        <time>2012-04-01T18:40:39Z</time>
      </trkpt>
      <trkpt lat="59.9825294783" lon="23.4506580349">
        <ele>6</ele>
        <time>2012-04-01T18:40:42Z</time>
      </trkpt>
      <trkpt lat="59.9825651852" lon="23.4510344661">
        <ele>6</ele>
        <time>2012-04-01T18:40:45Z</time>
      </trkpt>
      <trkpt lat="59.9826065918" lon="23.4514072091">
        <ele>6</ele>
        <time>2012-04-01T18:40:48Z</time>
      </trkpt>
      <trkpt lat="59.9826510159" lon="23.4517646972">
        <ele>6</ele>
        <time>2012-04-01T18:40:51Z</time>
      </trkpt>
      <trkpt lat="59.9826997147" lon="23.4521102829">
        <ele>6</ele>
        <time>2012-04-01T18:40:54Z</time>
      </trkpt>
      <trkpt lat="59.982762076" lon="23.4525630732">
        <ele>6</ele>
        <time>2012-04-01T18:40:58Z</time>
      </trkpt>
      <trkpt lat="59.9828304723" lon="23.4530147737">
        <ele>6</ele>
        <time>2012-04-01T18:41:02Z</time>
      </trkpt>
      <trkpt lat="59.9829026405" lon="23.4534547397">
        <ele>6</ele>
        <time>2012-04-01T18:41:06Z</time>
      </trkpt>
      <trkpt lat="59.9829743058" lon="23.4538592502">
        <ele>6</ele>
        <time>2012-04-01T18:41:10Z</time>
      </trkpt>
      <trkpt lat="59.9830448813" lon="23.4542070152">
        <ele>6</ele>
        <time>2012-04-01T18:41:13Z</time>
      </trkpt>
      <trkpt lat="59.9831354897" lon="23.4546244338">
        <ele>6</ele>
        <time>2012-04-01T18:41:17Z</time>
      </trkpt>
      <trkpt lat="59.9832317139" lon="23.4550347278">
        <ele>6</ele>
        <time>2012-04-01T18:41:21Z</time>
      </trkpt>
      <trkpt lat="59.9833358171" lon="23.4554353827">
        <ele>6</ele>
        <time>2012-04-01T18:41:25Z</time>
      </trkpt>
      <trkpt lat="59.9834404232" lon="23.4558383006">
        <ele>6</ele>
        <time>2012-04-01T18:41:29Z</time>
      </trkpt>
      <trkpt lat="59.9835533274" lon="23.4562384525">
        <ele>6</ele>
        <time>2012-04-01T18:41:33Z</time>
      </trkpt>
      <trkpt lat="59.9836731048" lon="23.4566357545">
        <ele>6</ele>
        <time>2012-04-01T18:41:37Z</time>
      </trkpt>
      <trkpt lat="59.9837883559" lon="23.4570253453">
        <ele>6</ele>
        <time>2012-04-01T18:41:41Z</time>
      </trkpt>
      <trkpt lat="59.9838962309" lon="23.4574258324">
        <ele>6</ele>
        <time>2012-04-01T18:41:45Z</time>
      </trkpt>
      <trkpt lat="59.9839764457" lon="23.4577300954">
        <ele>6</ele>
        <time>2012-04-01T18:41:48Z</time>
      </trkpt>
      <trkpt lat="59.9841081254" lon="23.4582241246">
        <ele>6.8</ele>
        <time>2012-04-01T18:41:53Z</time>
      </trkpt>
      <trkpt lat="59.9842114742" lon="23.4586200856">
        <ele>7.2</ele>
        <time>2012-04-01T18:41:57Z</time>
      </trkpt>
      <trkpt lat="59.9843049324" lon="23.4590273621">
        <ele>7.6</ele>
        <time>2012-04-01T18:42:01Z</time>
      </trkpt>
      <trkpt lat="59.9844360253" lon="23.4596397437">
        <ele>7.8</ele>
        <time>2012-04-01T18:42:07Z</time>
      </trkpt>
      <trkpt lat="59.9844568124" lon="23.459742422">
        <ele>7.8</ele>
        <time>2012-04-01T18:42:08Z</time>
      </trkpt>
      <trkpt lat="59.9845131388" lon="23.4600492833">
        <ele>7.8</ele>
        <time>2012-04-01T18:42:11Z</time>
      </trkpt>
      <trkpt lat="59.9845684593" lon="23.4604012393">
        <ele>8</ele>
        <time>2012-04-01T18:42:14Z</time>
      </trkpt>
      <trkpt lat="59.9846205947" lon="23.460756129">
        <ele>8</ele>
        <time>2012-04-01T18:42:17Z</time>
      </trkpt>
      <trkpt lat="59.9846742389" lon="23.4611144552">
        <ele>8</ele>
        <time>2012-04-01T18:42:20Z</time>
      </trkpt>
      <trkpt lat="59.9847238597" lon="23.4614711888">
        <ele>8</ele>
        <time>2012-04-01T18:42:23Z</time>
      </trkpt>
      <trkpt lat="59.9847703793" lon="23.4618249888">
        <ele>8.6</ele>
        <time>2012-04-01T18:42:26Z</time>
      </trkpt>
      <trkpt lat="59.9848117859" lon="23.4621800461">
        <ele>9</ele>
        <time>2012-04-01T18:42:29Z</time>
      </trkpt>
      <trkpt lat="59.9848553717" lon="23.462536696">
        <ele>9.4</ele>
        <time>2012-04-01T18:42:32Z</time>
      </trkpt>
      <trkpt lat="59.9848925874" lon="23.4629026497">
        <ele>9.6</ele>
        <time>2012-04-01T18:42:35Z</time>
      </trkpt>
      <trkpt lat="59.9849314794" lon="23.4632708666">
        <ele>9.8</ele>
        <time>2012-04-01T18:42:38Z</time>
      </trkpt>
      <trkpt lat="59.9849676054" lon="23.4636367365">
        <ele>9.8</ele>
        <time>2012-04-01T18:42:41Z</time>
      </trkpt>
      <trkpt lat="59.9850016359" lon="23.4640073003">
        <ele>10</ele>
        <time>2012-04-01T18:42:44Z</time>
      </trkpt>
      <trkpt lat="59.985034493" lon="23.4644743398">
        <ele>10</ele>
        <time>2012-04-01T18:42:48Z</time>
      </trkpt>
      <trkpt lat="59.9850556992" lon="23.4649397029">
        <ele>10</ele>
        <time>2012-04-01T18:42:52Z</time>
      </trkpt>
      <trkpt lat="59.9850801743" lon="23.4653979414">
        <ele>10</ele>
        <time>2012-04-01T18:42:56Z</time>
      </trkpt>
      <trkpt lat="59.9850883886" lon="23.4658348898">
        <ele>10.8</ele>
        <time>2012-04-01T18:43:00Z</time>
      </trkpt>
      <trkpt lat="59.9850864607" lon="23.4660642186">
        <ele>11.2</ele>
        <time>2012-04-01T18:43:02Z</time>
      </trkpt>
      <trkpt lat="59.9850962676" lon="23.4666191842">
        <ele>11.6</ele>
        <time>2012-04-01T18:43:07Z</time>
      </trkpt>
      <trkpt lat="59.9850988659" lon="23.4670715553">
        <ele>12</ele>
        <time>2012-04-01T18:43:11Z</time>
      </trkpt>
      <trkpt lat="59.9851088404" lon="23.467548234">
        <ele>12.8</ele>
        <time>2012-04-01T18:43:15Z</time>
      </trkpt>
      <trkpt lat="59.9851239278" lon="23.4680472923">
        <ele>13.4</ele>
        <time>2012-04-01T18:43:19Z</time>
      </trkpt>
      <trkpt lat="59.9851416136" lon="23.4684186943">
        <ele>13.6</ele>
        <time>2012-04-01T18:43:22Z</time>
      </trkpt>
      <trkpt lat="59.9851722914" lon="23.4688938642">
        <ele>14.4</ele>
        <time>2012-04-01T18:43:26Z</time>
      </trkpt>
      <trkpt lat="59.9852101776" lon="23.4693241071">
        <ele>15.2</ele>
        <time>2012-04-01T18:43:30Z</time>
      </trkpt>
      <trkpt lat="59.9852494049" lon="23.4697354908">
        <ele>15.6</ele>
        <time>2012-04-01T18:43:34Z</time>
      </trkpt>
      <trkpt lat="59.9852974332" lon="23.4701362294">
        <ele>16.8</ele>
        <time>2012-04-01T18:43:38Z</time>
      </trkpt>
      <trkpt lat="59.9853565256" lon="23.4705322742">
        <ele>17.4</ele>
        <time>2012-04-01T18:43:42Z</time>
      </trkpt>
      <trkpt lat="59.9854131034" lon="23.4709082024">
        <ele>18.6</ele>
        <time>2012-04-01T18:43:46Z</time>
      </trkpt>
      <trkpt lat="59.9854675857" lon="23.4712787662">
        <ele>19.4</ele>
        <time>2012-04-01T18:43:50Z</time>
      </trkpt>
      <trkpt lat="59.9855314558" lon="23.4716490786">
        <ele>20.6</ele>
        <time>2012-04-01T18:43:54Z</time>
      </trkpt>
      <trkpt lat="59.9856135984" lon="23.4720117634">
        <ele>21.4</ele>
        <time>2012-04-01T18:43:58Z</time>
      </trkpt>
      <trkpt lat="59.9856903766" lon="23.4723789744">
        <ele>22.8</ele>
        <time>2012-04-01T18:44:02Z</time>
      </trkpt>
      <trkpt lat="59.985764305" lon="23.4727214588">
        <ele>23.6</ele>
        <time>2012-04-01T18:44:06Z</time>
      </trkpt>
      <trkpt lat="59.9858647201" lon="23.4731409729">
        <ele>24.6</ele>
        <time>2012-04-01T18:44:11Z</time>
      </trkpt>
      <trkpt lat="59.9859563343" lon="23.4734709683">
        <ele>25.6</ele>
        <time>2012-04-01T18:44:15Z</time>
      </trkpt>
      <trkpt lat="59.9860450986" lon="23.473790654">
        <ele>26.2</ele>
        <time>2012-04-01T18:44:19Z</time>
      </trkpt>
      <trkpt lat="59.9861428316" lon="23.4741119322">
        <ele>26.6</ele>
        <time>2012-04-01T18:44:23Z</time>
      </trkpt>
      <trkpt lat="59.9861721682" lon="23.4741970085">
        <ele>26.8</ele>
        <time>2012-04-01T18:44:24Z</time>
      </trkpt>
      <trkpt lat="59.9862408998" lon="23.4744488846">
        <ele>27.4</ele>
        <time>2012-04-01T18:44:27Z</time>
      </trkpt>
      <trkpt lat="59.9863760999" lon="23.4748899402">
        <ele>28.2</ele>
        <time>2012-04-01T18:44:32Z</time>
      </trkpt>
      <trkpt lat="59.9864880821" lon="23.4752559778">
        <ele>28.6</ele>
        <time>2012-04-01T18:44:36Z</time>
      </trkpt>
      <trkpt lat="59.9866037523" lon="23.4756251166">
        <ele>29</ele>
        <time>2012-04-01T18:44:40Z</time>
      </trkpt>
      <trkpt lat="59.9867295646" lon="23.4760156294">
        <ele>29.4</ele>
        <time>2012-04-01T18:44:44Z</time>
      </trkpt>
      <trkpt lat="59.9868470788" lon="23.476416368">
        <ele>30.2</ele>
        <time>2012-04-01T18:44:48Z</time>
      </trkpt>
      <trkpt lat="59.986902567" lon="23.4766244068">
        <ele>30.4</ele>
        <time>2012-04-01T18:44:50Z</time>
      </trkpt>
      <trkpt lat="59.9869597316" lon="23.4768301824">
        <ele>30.6</ele>
        <time>2012-04-01T18:44:52Z</time>
      </trkpt>
      <trkpt lat="59.9870478253" lon="23.477144336">
        <ele>30.8</ele>
        <time>2012-04-01T18:44:55Z</time>
      </trkpt>
      <trkpt lat="59.9871392719" lon="23.4774704757">
        <ele>31</ele>
        <time>2012-04-01T18:44:58Z</time>
      </trkpt>
      <trkpt lat="59.9872282876" lon="23.4778059194">
        <ele>31</ele>
        <time>2012-04-01T18:45:01Z</time>
      </trkpt>
      <trkpt lat="59.9873188122" lon="23.4781584621">
        <ele>31.2</ele>
        <time>2012-04-01T18:45:04Z</time>
      </trkpt>
      <trkpt lat="59.9874080794" lon="23.4785062271">
        <ele>31.2</ele>
        <time>2012-04-01T18:45:07Z</time>
      </trkpt>
      <trkpt lat="59.9874960893" lon="23.4788748631">
        <ele>31.2</ele>
        <time>2012-04-01T18:45:10Z</time>
      </trkpt>
      <trkpt lat="59.9875859433" lon="23.479252803">
        <ele>31.4</ele>
        <time>2012-04-01T18:45:13Z</time>
      </trkpt>
      <trkpt lat="59.9876725283" lon="23.4796341794">
        <ele>31.4</ele>
        <time>2012-04-01T18:45:16Z</time>
      </trkpt>
      <trkpt lat="59.987755593" lon="23.4800122869">
        <ele>31.4</ele>
        <time>2012-04-01T18:45:19Z</time>
      </trkpt>
      <trkpt lat="59.9878368136" lon="23.4803903106">
        <ele>31.4</ele>
        <time>2012-04-01T18:45:22Z</time>
      </trkpt>
      <trkpt lat="59.9879140947" lon="23.4807650654">
        <ele>31.4</ele>
        <time>2012-04-01T18:45:25Z</time>
      </trkpt>
      <trkpt lat="59.9879853408" lon="23.4811305162">
        <ele>31.4</ele>
        <time>2012-04-01T18:45:28Z</time>
      </trkpt>
      <trkpt lat="59.9880540724" lon="23.481478365">
        <ele>31.4</ele>
        <time>2012-04-01T18:45:31Z</time>
      </trkpt>
      <trkpt lat="59.9880757815" lon="23.4815878327">
        <ele>31.4</ele>
        <time>2012-04-01T18:45:32Z</time>
      </trkpt>
      <trkpt lat="59.9881083033" lon="23.4820035749">
        <ele>31.4</ele>
        <time>2012-04-01T18:45:37Z</time>
      </trkpt>
      <trkpt lat="59.9881146736" lon="23.4820761622">
        <ele>31.4</ele>
        <time>2012-04-01T18:45:38Z</time>
      </trkpt>
      <trkpt lat="59.9881397354" lon="23.4822352506">
        <ele>31.4</ele>
        <time>2012-04-01T18:45:40Z</time>
      </trkpt>
      <trkpt lat="59.9882528073" lon="23.482606485">
        <ele>31.4</ele>
        <time>2012-04-01T18:45:44Z</time>
      </trkpt>
      <trkpt lat="59.9883622749" lon="23.4831454411">
        <ele>31.4</ele>
        <time>2012-04-01T18:45:49Z</time>
      </trkpt>
      <trkpt lat="59.9884190204" lon="23.4834854948">
        <ele>31.4</ele>
        <time>2012-04-01T18:45:52Z</time>
      </trkpt>
      <trkpt lat="59.9884750953" lon="23.4838263867">
        <ele>31.4</ele>
        <time>2012-04-01T18:45:55Z</time>
      </trkpt>
      <trkpt lat="59.9885277336" lon="23.4841713857">
        <ele>31.4</ele>
        <time>2012-04-01T18:45:58Z</time>
      </trkpt>
      <trkpt lat="59.988627562" lon="23.4848817517">
        <ele>31.4</ele>
        <time>2012-04-01T18:46:04Z</time>
      </trkpt>
      <trkpt lat="59.988677602" lon="23.4852358032">
        <ele>31.4</ele>
        <time>2012-04-01T18:46:07Z</time>
      </trkpt>
      <trkpt lat="59.9887190924" lon="23.4855895194">
        <ele>31.4</ele>
        <time>2012-04-01T18:46:10Z</time>
      </trkpt>
      <trkpt lat="59.9887656957" lon="23.4860469196">
        <ele>31.4</ele>
        <time>2012-04-01T18:46:14Z</time>
      </trkpt>
      <trkpt lat="59.9888036657" lon="23.4864826946">
        <ele>31.4</ele>
        <time>2012-04-01T18:46:18Z</time>
      </trkpt>
      <trkpt lat="59.9888420548" lon="23.4869044718">
        <ele>31.4</ele>
        <time>2012-04-01T18:46:22Z</time>
      </trkpt>
      <trkpt lat="59.9888745766" lon="23.4873222257">
        <ele>31.4</ele>
        <time>2012-04-01T18:46:26Z</time>
      </trkpt>
      <trkpt lat="59.9889071822" lon="23.4877338608">
        <ele>31.4</ele>
        <time>2012-04-01T18:46:30Z</time>
      </trkpt>
      <trkpt lat="59.9889402069" lon="23.4881387904">
        <ele>31.4</ele>
        <time>2012-04-01T18:46:34Z</time>
      </trkpt>
      <trkpt lat="59.9889703817" lon="23.4885507608">
        <ele>31.4</ele>
        <time>2012-04-01T18:46:38Z</time>
      </trkpt>
      <trkpt lat="59.9890092738" lon="23.4889644076">
        <ele>31.4</ele>
        <time>2012-04-01T18:46:42Z</time>
      </trkpt>
      <trkpt lat="59.9890562124" lon="23.489395824">
        <ele>31.4</ele>
        <time>2012-04-01T18:46:46Z</time>
      </trkpt>
      <trkpt lat="59.9891077611" lon="23.4898452614">
        <ele>31.4</ele>
        <time>2012-04-01T18:46:50Z</time>
      </trkpt>
      <trkpt lat="59.9891620758" lon="23.4903014883">
        <ele>31.4</ele>
        <time>2012-04-01T18:46:54Z</time>
      </trkpt>
      <trkpt lat="59.9892227607" lon="23.4907543623">
        <ele>31.4</ele>
        <time>2012-04-01T18:46:58Z</time>
      </trkpt>
      <trkpt lat="59.9892908218" lon="23.4911952503">
        <ele>31.4</ele>
        <time>2012-04-01T18:47:02Z</time>
      </trkpt>
      <trkpt lat="59.9893470643" lon="23.491544524">
        <ele>31.4</ele>
        <time>2012-04-01T18:47:05Z</time>
      </trkpt>
      <trkpt lat="59.9894073302" lon="23.4918872599">
        <ele>31.4</ele>
        <time>2012-04-01T18:47:08Z</time>
      </trkpt>
      <trkpt lat="59.9894706135" lon="23.4922316722">
        <ele>31.4</ele>
        <time>2012-04-01T18:47:11Z</time>
      </trkpt>
      <trkpt lat="59.9895540973" lon="23.4926750747">
        <ele>31.4</ele>
        <time>2012-04-01T18:47:15Z</time>
      </trkpt>
      <trkpt lat="59.9896899679" lon="23.4933385021">
        <ele>31.4</ele>
        <time>2012-04-01T18:47:21Z</time>
      </trkpt>
      <trkpt lat="59.989736655" lon="23.4935531625">
        <ele>31.4</ele>
        <time>2012-04-01T18:47:23Z</time>
      </trkpt>
      <trkpt lat="59.9897851862" lon="23.493765057">
        <ele>31.4</ele>
        <time>2012-04-01T18:47:25Z</time>
      </trkpt>
      <trkpt lat="59.9898879483" lon="23.4941946294">
        <ele>31.4</ele>
        <time>2012-04-01T18:47:29Z</time>
      </trkpt>
      <trkpt lat="59.9899949014" lon="23.494613892">
        <ele>31.4</ele>
        <time>2012-04-01T18:47:33Z</time>
      </trkpt>
      <trkpt lat="59.9901029441" lon="23.4950255271">
        <ele>31.4</ele>
        <time>2012-04-01T18:47:37Z</time>
      </trkpt>
      <trkpt lat="59.9902149262" lon="23.4954421075">
        <ele>31.4</ele>
        <time>2012-04-01T18:47:41Z</time>
      </trkpt>
      <trkpt lat="59.9903101446" lon="23.4957633858">
        <ele>31.4</ele>
        <time>2012-04-01T18:47:44Z</time>
      </trkpt>
      <trkpt lat="59.9904054468" lon="23.4960715044">
        <ele>31.4</ele>
        <time>2012-04-01T18:47:47Z</time>
      </trkpt>
      <trkpt lat="59.9905060296" lon="23.496393537">
        <ele>31.4</ele>
        <time>2012-04-01T18:47:50Z</time>
      </trkpt>
      <trkpt lat="59.9906143238" lon="23.4967143123">
        <ele>31.4</ele>
        <time>2012-04-01T18:47:53Z</time>
      </trkpt>
      <trkpt lat="59.9907246296" lon="23.4970314834">
        <ele>31.4</ele>
        <time>2012-04-01T18:47:56Z</time>
      </trkpt>
      <trkpt lat="59.9908364441" lon="23.4973390153">
        <ele>31.4</ele>
        <time>2012-04-01T18:47:59Z</time>
      </trkpt>
      <trkpt lat="59.9909400444" lon="23.4976333038">
        <ele>31.4</ele>
        <time>2012-04-01T18:48:02Z</time>
      </trkpt>
      <trkpt lat="59.9910605761" lon="23.4979493015">
        <ele>31.4</ele>
        <time>2012-04-01T18:48:05Z</time>
      </trkpt>
      <trkpt lat="59.9911811917" lon="23.4982547379">
        <ele>31.4</ele>
        <time>2012-04-01T18:48:08Z</time>
      </trkpt>
      <trkpt lat="59.9913937567" lon="23.4987567299">
        <ele>31.4</ele>
        <time>2012-04-01T18:48:13Z</time>
      </trkpt>
      <trkpt lat="59.991525604" lon="23.499053533">
        <ele>31.4</ele>
        <time>2012-04-01T18:48:16Z</time>
      </trkpt>
      <trkpt lat="59.9916621451" lon="23.4993535212">
        <ele>31.4</ele>
        <time>2012-04-01T18:48:19Z</time>
      </trkpt>
      <trkpt lat="59.991807152" lon="23.4996526712">
        <ele>31.4</ele>
        <time>2012-04-01T18:48:22Z</time>
      </trkpt>
      <trkpt lat="59.9919498957" lon="23.4999488037">
        <ele>31.4</ele>
        <time>2012-04-01T18:48:25Z</time>
      </trkpt>
      <trkpt lat="59.9920933939" lon="23.5002337883">
        <ele>31.4</ele>
        <time>2012-04-01T18:48:28Z</time>
      </trkpt>
      <trkpt lat="59.9922333716" lon="23.5005073735">
        <ele>31.4</ele>
        <time>2012-04-01T18:48:31Z</time>
      </trkpt>
      <trkpt lat="59.9923719244" lon="23.5007771031">
        <ele>31.4</ele>
        <time>2012-04-01T18:48:34Z</time>
      </trkpt>
      <trkpt lat="59.9925110639" lon="23.5010409653">
        <ele>31.4</ele>
        <time>2012-04-01T18:48:37Z</time>
      </trkpt>
      <trkpt lat="59.992647186" lon="23.5013053304">
        <ele>31.8</ele>
        <time>2012-04-01T18:48:40Z</time>
      </trkpt>
      <trkpt lat="59.9927854035" lon="23.5015606431">
        <ele>32.2</ele>
        <time>2012-04-01T18:48:43Z</time>
      </trkpt>
      <trkpt lat="59.992921777" lon="23.5018103399">
        <ele>32.6</ele>
        <time>2012-04-01T18:48:46Z</time>
      </trkpt>
      <trkpt lat="59.9930585696" lon="23.5020595338">
        <ele>32.8</ele>
        <time>2012-04-01T18:48:49Z</time>
      </trkpt>
      <trkpt lat="59.9931973739" lon="23.5023053749">
        <ele>33</ele>
        <time>2012-04-01T18:48:52Z</time>
      </trkpt>
      <trkpt lat="59.9933341665" lon="23.5025477794">
        <ele>33</ele>
        <time>2012-04-01T18:48:55Z</time>
      </trkpt>
      <trkpt lat="59.9934707915" lon="23.5027939558">
        <ele>33.6</ele>
        <time>2012-04-01T18:48:58Z</time>
      </trkpt>
      <trkpt lat="59.9936035608" lon="23.5030423115">
        <ele>34</ele>
        <time>2012-04-01T18:49:01Z</time>
      </trkpt>
      <trkpt lat="59.993736833" lon="23.5032906672">
        <ele>34.4</ele>
        <time>2012-04-01T18:49:04Z</time>
      </trkpt>
      <trkpt lat="59.9939529184" lon="23.5036832754">
        <ele>34.8</ele>
        <time>2012-04-01T18:49:09Z</time>
      </trkpt>
      <trkpt lat="59.9941265075" lon="23.5039969261">
        <ele>35</ele>
        <time>2012-04-01T18:49:13Z</time>
      </trkpt>
      <trkpt lat="59.994301354" lon="23.5043067212">
        <ele>35.2</ele>
        <time>2012-04-01T18:49:17Z</time>
      </trkpt>
      <trkpt lat="59.9944725962" lon="23.5046204557">
        <ele>35.2</ele>
        <time>2012-04-01T18:49:21Z</time>
      </trkpt>
      <trkpt lat="59.9946486999" lon="23.5049289934">
        <ele>35.4</ele>
        <time>2012-04-01T18:49:25Z</time>
      </trkpt>
      <trkpt lat="59.9947840676" lon="23.5051655306">
        <ele>35.4</ele>
        <time>2012-04-01T18:49:28Z</time>
      </trkpt>
      <trkpt lat="59.9949180942" lon="23.5054143054">
        <ele>35.4</ele>
        <time>2012-04-01T18:49:31Z</time>
      </trkpt>
      <trkpt lat="59.9950929406" lon="23.5057346616">
        <ele>35.4</ele>
        <time>2012-04-01T18:49:35Z</time>
      </trkpt>
      <trkpt lat="59.9952660268" lon="23.5060459654">
        <ele>35.4</ele>
        <time>2012-04-01T18:49:39Z</time>
      </trkpt>
      <trkpt lat="59.9953985447" lon="23.5062877832">
        <ele>35.4</ele>
        <time>2012-04-01T18:49:42Z</time>
      </trkpt>
      <trkpt lat="59.9955743969" lon="23.5066039485">
        <ele>35.4</ele>
        <time>2012-04-01T18:49:46Z</time>
      </trkpt>
      <trkpt lat="59.9956606467" lon="23.5067618635">
        <ele>35.4</ele>
        <time>2012-04-01T18:49:48Z</time>
      </trkpt>
      <trkpt lat="59.9957458068" lon="23.5069269869">
        <ele>35.4</ele>
        <time>2012-04-01T18:49:50Z</time>
      </trkpt>
      <trkpt lat="59.9959174681" lon="23.5072384583">
        <ele>35.4</ele>
        <time>2012-04-01T18:49:54Z</time>
      </trkpt>
      <trkpt lat="59.9960790711" lon="23.5075340879">
        <ele>35.4</ele>
        <time>2012-04-01T18:49:58Z</time>
      </trkpt>
      <trkpt lat="59.9962367347" lon="23.5078207489">
        <ele>35.4</ele>
        <time>2012-04-01T18:50:02Z</time>
      </trkpt>
      <trkpt lat="59.9963949011" lon="23.5081178873">
        <ele>35.4</ele>
        <time>2012-04-01T18:50:06Z</time>
      </trkpt>
      <trkpt lat="59.9965508045" lon="23.5084548396">
        <ele>35.4</ele>
        <time>2012-04-01T18:50:10Z</time>
      </trkpt>
      <trkpt lat="59.9967512157" lon="23.5088694922">
        <ele>35.4</ele>
        <time>2012-04-01T18:50:15Z</time>
      </trkpt>
      <trkpt lat="59.9969183508" lon="23.5091670497">
        <ele>35.4</ele>
        <time>2012-04-01T18:50:19Z</time>
      </trkpt>
      <trkpt lat="59.9970732483" lon="23.5094782696">
        <ele>35.4</ele>
        <time>2012-04-01T18:50:23Z</time>
      </trkpt>
      <trkpt lat="59.9972281458" lon="23.5097832032">
        <ele>35.4</ele>
        <time>2012-04-01T18:50:27Z</time>
      </trkpt>
      <trkpt lat="59.9973854741" lon="23.5100848677">
        <ele>35.4</ele>
        <time>2012-04-01T18:50:31Z</time>
      </trkpt>
      <trkpt lat="59.997538779" lon="23.510402877">
        <ele>35.8</ele>
        <time>2012-04-01T18:50:35Z</time>
      </trkpt>
      <trkpt lat="59.9976936765" lon="23.5107145161">
        <ele>36.4</ele>
        <time>2012-04-01T18:50:39Z</time>
      </trkpt>
      <trkpt lat="59.9978455566" lon="23.5110344532">
        <ele>36.8</ele>
        <time>2012-04-01T18:50:43Z</time>
      </trkpt>
      <trkpt lat="59.99799861" lon="23.5113507861">
        <ele>37</ele>
        <time>2012-04-01T18:50:47Z</time>
      </trkpt>
      <trkpt lat="59.9981490651" lon="23.5116690468">
        <ele>37.2</ele>
        <time>2012-04-01T18:50:51Z</time>
      </trkpt>
      <trkpt lat="59.9982994364" lon="23.5119814402">
        <ele>37.4</ele>
        <time>2012-04-01T18:50:55Z</time>
      </trkpt>
      <trkpt lat="59.9984458682" lon="23.5122942528">
        <ele>37.4</ele>
        <time>2012-04-01T18:50:59Z</time>
      </trkpt>
      <trkpt lat="59.9985936411" lon="23.5126089931">
        <ele>37.4</ele>
        <time>2012-04-01T18:51:03Z</time>
      </trkpt>
      <trkpt lat="59.9987381451" lon="23.5129194587">
        <ele>37.4</ele>
        <time>2012-04-01T18:51:07Z</time>
      </trkpt>
      <trkpt lat="59.9989186074" lon="23.5133227957">
        <ele>37.4</ele>
        <time>2012-04-01T18:51:12Z</time>
      </trkpt>
      <trkpt lat="59.999065123" lon="23.5136555571">
        <ele>37.4</ele>
        <time>2012-04-01T18:51:16Z</time>
      </trkpt>
      <trkpt lat="59.9992113033" lon="23.5139808587">
        <ele>37.4</ele>
        <time>2012-04-01T18:51:20Z</time>
      </trkpt>
      <trkpt lat="59.9993559749" lon="23.5143013825">
        <ele>37.8</ele>
        <time>2012-04-01T18:51:24Z</time>
      </trkpt>
      <trkpt lat="59.999490253" lon="23.5146085792">
        <ele>38.4</ele>
        <time>2012-04-01T18:51:28Z</time>
      </trkpt>
      <trkpt lat="59.9996277999" lon="23.5149342998">
        <ele>38.8</ele>
        <time>2012-04-01T18:51:32Z</time>
      </trkpt>
      <trkpt lat="59.9997762434" lon="23.5152647143">
        <ele>39</ele>
        <time>2012-04-01T18:51:36Z</time>
      </trkpt>
      <trkpt lat="59.9999240163" lon="23.5156022534">
        <ele>39.2</ele>
        <time>2012-04-01T18:51:40Z</time>
      </trkpt>
      <trkpt lat="60.0000716216" lon="23.5159454922">
        <ele>39.4</ele>
        <time>2012-04-01T18:51:44Z</time>
      </trkpt>
      <trkpt lat="60.0002148682" lon="23.5162836181">
        <ele>39.4</ele>
        <time>2012-04-01T18:51:48Z</time>
      </trkpt>
      <trkpt lat="60.0003659939" lon="23.5166450456">
        <ele>39.4</ele>
        <time>2012-04-01T18:51:52Z</time>
      </trkpt>
      <trkpt lat="60.0005132639" lon="23.5169989294">
        <ele>39.4</ele>
        <time>2012-04-01T18:51:56Z</time>
      </trkpt>
      <trkpt lat="60.0006550856" lon="23.5173433417">
        <ele>39.4</ele>
        <time>2012-04-01T18:52:00Z</time>
      </trkpt>
      <trkpt lat="60.0008285071" lon="23.5177677173">
        <ele>39.6</ele>
        <time>2012-04-01T18:52:05Z</time>
      </trkpt>
      <trkpt lat="60.0009664732" lon="23.518110537">
        <ele>40.2</ele>
        <time>2012-04-01T18:52:09Z</time>
      </trkpt>
      <trkpt lat="60.0010987396" lon="23.5184419573">
        <ele>40.6</ele>
        <time>2012-04-01T18:52:13Z</time>
      </trkpt>
      <trkpt lat="60.0012457581" lon="23.5188039716">
        <ele>41</ele>
        <time>2012-04-01T18:52:17Z</time>
      </trkpt>
      <trkpt lat="60.0013818802" lon="23.519161292">
        <ele>41.2</ele>
        <time>2012-04-01T18:52:21Z</time>
      </trkpt>
      <trkpt lat="60.0015185889" lon="23.5195145052">
        <ele>41.4</ele>
        <time>2012-04-01T18:52:25Z</time>
      </trkpt>
      <trkpt lat="60.0016581476" lon="23.5198664612">
        <ele>41.4</ele>
        <time>2012-04-01T18:52:29Z</time>
      </trkpt>
      <trkpt lat="60.0016933516" lon="23.5199555608">
        <ele>41.4</ele>
        <time>2012-04-01T18:52:30Z</time>
      </trkpt>
      <trkpt lat="60.001798712" lon="23.5202314091">
        <ele>41.4</ele>
        <time>2012-04-01T18:52:33Z</time>
      </trkpt>
      <trkpt lat="60.0019421264" lon="23.5205997936">
        <ele>41.4</ele>
        <time>2012-04-01T18:52:37Z</time>
      </trkpt>
      <trkpt lat="60.0020856245" lon="23.5209716147">
        <ele>41.6</ele>
        <time>2012-04-01T18:52:41Z</time>
      </trkpt>
      <trkpt lat="60.0022237582" lon="23.5213489679">
        <ele>41.6</ele>
        <time>2012-04-01T18:52:45Z</time>
      </trkpt>
      <trkpt lat="60.0023634007" lon="23.5217196993">
        <ele>41.6</ele>
        <time>2012-04-01T18:52:49Z</time>
      </trkpt>
      <trkpt lat="60.0025008638" lon="23.5220921071">
        <ele>41.6</ele>
        <time>2012-04-01T18:52:53Z</time>
      </trkpt>
      <trkpt lat="60.0026342198" lon="23.5224631738">
        <ele>42.2</ele>
        <time>2012-04-01T18:52:57Z</time>
      </trkpt>
      <trkpt lat="60.0027679111" lon="23.5228291276">
        <ele>42.6</ele>
        <time>2012-04-01T18:53:01Z</time>
      </trkpt>
      <trkpt lat="60.0028977468" lon="23.5231994399">
        <ele>43</ele>
        <time>2012-04-01T18:53:05Z</time>
      </trkpt>
      <trkpt lat="60.0030299293" lon="23.5235649746">
        <ele>43.2</ele>
        <time>2012-04-01T18:53:09Z</time>
      </trkpt>
      <trkpt lat="60.0031665543" lon="23.5239540624">
        <ele>43.4</ele>
        <time>2012-04-01T18:53:13Z</time>
      </trkpt>
      <trkpt lat="60.003296809" lon="23.5243251291">
        <ele>43.4</ele>
        <time>2012-04-01T18:53:17Z</time>
      </trkpt>
      <trkpt lat="60.0034222023" lon="23.5246795997">
        <ele>43.4</ele>
        <time>2012-04-01T18:53:21Z</time>
      </trkpt>
      <trkpt lat="60.0035433207" lon="23.5250324776">
        <ele>43.6</ele>
        <time>2012-04-01T18:53:25Z</time>
      </trkpt>
      <trkpt lat="60.003663601" lon="23.5253933184">
        <ele>43.6</ele>
        <time>2012-04-01T18:53:29Z</time>
      </trkpt>
      <trkpt lat="60.0037853062" lon="23.5257493816">
        <ele>43.6</ele>
        <time>2012-04-01T18:53:33Z</time>
      </trkpt>
      <trkpt lat="60.0039015631" lon="23.5261212026">
        <ele>44.2</ele>
        <time>2012-04-01T18:53:37Z</time>
      </trkpt>
      <trkpt lat="60.0040214243" lon="23.5264885813">
        <ele>44.8</ele>
        <time>2012-04-01T18:53:41Z</time>
      </trkpt>
      <trkpt lat="60.0041458117" lon="23.5268424651">
        <ele>45</ele>
        <time>2012-04-01T18:53:45Z</time>
      </trkpt>
      <trkpt lat="60.0042706182" lon="23.5271980253">
        <ele>45.2</ele>
        <time>2012-04-01T18:53:49Z</time>
      </trkpt>
      <trkpt lat="60.0043860369" lon="23.5275692597">
        <ele>45.4</ele>
        <time>2012-04-01T18:53:53Z</time>
      </trkpt>
      <trkpt lat="60.0045079936" lon="23.5279575093">
        <ele>45.4</ele>
        <time>2012-04-01T18:53:57Z</time>
      </trkpt>
      <trkpt lat="60.0046003621" lon="23.5282709085">
        <ele>45.6</ele>
        <time>2012-04-01T18:54:00Z</time>
      </trkpt>
      <trkpt lat="60.0047210615" lon="23.5286914285">
        <ele>45.8</ele>
        <time>2012-04-01T18:54:04Z</time>
      </trkpt>
      <trkpt lat="60.0048345524" lon="23.5290913289">
        <ele>46.4</ele>
        <time>2012-04-01T18:54:08Z</time>
      </trkpt>
      <trkpt lat="60.0049318663" lon="23.5294452965">
        <ele>46.8</ele>
        <time>2012-04-01T18:54:12Z</time>
      </trkpt>
      <trkpt lat="60.0050283419" lon="23.5297915528">
        <ele>47.2</ele>
        <time>2012-04-01T18:54:15Z</time>
      </trkpt>
      <trkpt lat="60.0051337024" lon="23.5301863403">
        <ele>47.4</ele>
        <time>2012-04-01T18:54:19Z</time>
      </trkpt>
      <trkpt lat="60.0052400687" lon="23.5305842291">
        <ele>47.4</ele>
        <time>2012-04-01T18:54:23Z</time>
      </trkpt>
      <trkpt lat="60.0053400648" lon="23.5309988817">
        <ele>47.6</ele>
        <time>2012-04-01T18:54:27Z</time>
      </trkpt>
      <trkpt lat="60.0054341935" lon="23.5314239279">
        <ele>48</ele>
        <time>2012-04-01T18:54:31Z</time>
      </trkpt>
      <trkpt lat="60.0055292443" lon="23.5318609601">
        <ele>48.6</ele>
        <time>2012-04-01T18:54:35Z</time>
      </trkpt>
      <trkpt lat="60.0056202717" lon="23.5323042788">
        <ele>49</ele>
        <time>2012-04-01T18:54:39Z</time>
      </trkpt>
      <trkpt lat="60.0056900929" lon="23.5326445001">
        <ele>49.2</ele>
        <time>2012-04-01T18:54:42Z</time>
      </trkpt>
      <trkpt lat="60.0057641051" lon="23.5329860626">
        <ele>49.4</ele>
        <time>2012-04-01T18:54:45Z</time>
      </trkpt>
      <trkpt lat="60.0058349322" lon="23.5333210033">
        <ele>49.4</ele>
        <time>2012-04-01T18:54:48Z</time>
      </trkpt>
      <trkpt lat="60.0059034123" lon="23.5336582071">
        <ele>49.6</ele>
        <time>2012-04-01T18:54:51Z</time>
      </trkpt>
      <trkpt lat="60.0059680367" lon="23.5340056369">
        <ele>49.6</ele>
        <time>2012-04-01T18:54:54Z</time>
      </trkpt>
      <trkpt lat="60.0060363492" lon="23.5343386498">
        <ele>49.6</ele>
        <time>2012-04-01T18:54:57Z</time>
      </trkpt>
      <trkpt lat="60.0061404524" lon="23.534882216">
        <ele>49.6</ele>
        <time>2012-04-01T18:55:02Z</time>
      </trkpt>
      <trkpt lat="60.0062250258" lon="23.5353163984">
        <ele>49.6</ele>
        <time>2012-04-01T18:55:06Z</time>
      </trkpt>
      <trkpt lat="60.0062868842" lon="23.5356243494">
        <ele>49.8</ele>
        <time>2012-04-01T18:55:09Z</time>
      </trkpt>
      <trkpt lat="60.0064424523" lon="23.5364187021">
        <ele>50.6</ele>
        <time>2012-04-01T18:55:16Z</time>
      </trkpt>
      <trkpt lat="60.0065293726" lon="23.5368587518">
        <ele>51</ele>
        <time>2012-04-01T18:55:20Z</time>
      </trkpt>
      <trkpt lat="60.0066184722" lon="23.5372926828">
        <ele>51.4</ele>
        <time>2012-04-01T18:55:24Z</time>
      </trkpt>
      <trkpt lat="60.0067054763" lon="23.5377063295">
        <ele>51.4</ele>
        <time>2012-04-01T18:55:28Z</time>
      </trkpt>
      <trkpt lat="60.0068024549" lon="23.5381291964">
        <ele>51.6</ele>
        <time>2012-04-01T18:55:32Z</time>
      </trkpt>
      <trkpt lat="60.0068780596" lon="23.538458186">
        <ele>51.6</ele>
        <time>2012-04-01T18:55:35Z</time>
      </trkpt>
      <trkpt lat="60.0069604537" lon="23.5387956413">
        <ele>51.6</ele>
        <time>2012-04-01T18:55:38Z</time>
      </trkpt>
      <trkpt lat="60.0070490504" lon="23.5391416461">
        <ele>51.8</ele>
        <time>2012-04-01T18:55:41Z</time>
      </trkpt>
      <trkpt lat="60.0070755372" lon="23.5392600823">
        <ele>51.8</ele>
        <time>2012-04-01T18:55:42Z</time>
      </trkpt>
      <trkpt lat="60.0071109926" lon="23.5396438057">
        <ele>51.8</ele>
        <time>2012-04-01T18:55:45Z</time>
      </trkpt>
      <trkpt lat="60.0071632119" lon="23.540024344">
        <ele>51.8</ele>
        <time>2012-04-01T18:55:48Z</time>
      </trkpt>
      <trkpt lat="60.007249294" lon="23.5403876155">
        <ele>51.8</ele>
        <time>2012-04-01T18:55:51Z</time>
      </trkpt>
      <trkpt lat="60.0072833245" lon="23.5405005197">
        <ele>51.8</ele>
        <time>2012-04-01T18:55:52Z</time>
      </trkpt>
      <trkpt lat="60.0073948876" lon="23.5408256536">
        <ele>51.8</ele>
        <time>2012-04-01T18:55:55Z</time>
      </trkpt>
      <trkpt lat="60.007503517" lon="23.5411526315">
        <ele>51.8</ele>
        <time>2012-04-01T18:55:58Z</time>
      </trkpt>
      <trkpt lat="60.0075409003" lon="23.5412601713">
        <ele>51.8</ele>
        <time>2012-04-01T18:55:59Z</time>
      </trkpt>
      <trkpt lat="60.0076253898" lon="23.5414575651">
        <ele>51.8</ele>
        <time>2012-04-01T18:56:01Z</time>
      </trkpt>
      <trkpt lat="60.0078120547" lon="23.5418089343">
        <ele>51.8</ele>
        <time>2012-04-01T18:56:05Z</time>
      </trkpt>
      <trkpt lat="60.0079187563" lon="23.5421306316">
        <ele>51.8</ele>
        <time>2012-04-01T18:56:08Z</time>
      </trkpt>
      <trkpt lat="60.0080218537" lon="23.5429052868">
        <ele>51.2</ele>
        <time>2012-04-01T18:56:15Z</time>
      </trkpt>
      <trkpt lat="60.007896209" lon="23.5431239706">
        <ele>50.8</ele>
        <time>2012-04-01T18:56:18Z</time>
      </trkpt>
      <trkpt lat="60.0078479293" lon="23.5431709092">
        <ele>50.6</ele>
        <time>2012-04-01T18:56:19Z</time>
      </trkpt>
      <trkpt lat="60.0077994819" lon="23.5432013355">
        <ele>50.6</ele>
        <time>2012-04-01T18:56:20Z</time>
      </trkpt>
      <trkpt lat="60.0075973943" lon="23.5433139883">
        <ele>50.2</ele>
        <time>2012-04-01T18:56:24Z</time>
      </trkpt>
      <trkpt lat="60.0073989947" lon="23.543425719">
        <ele>50.2</ele>
        <time>2012-04-01T18:56:28Z</time>
      </trkpt>
      <trkpt lat="60.0071842504" lon="23.5435125555">
        <ele>50</ele>
        <time>2012-04-01T18:56:32Z</time>
      </trkpt>
      <trkpt lat="60.00696959" lon="23.5435939437">
        <ele>49.2</ele>
        <time>2012-04-01T18:56:36Z</time>
      </trkpt>
      <trkpt lat="60.0067622218" lon="23.5437000586">
        <ele>48.8</ele>
        <time>2012-04-01T18:56:40Z</time>
      </trkpt>
      <trkpt lat="60.0067133553" lon="23.5437349273">
        <ele>48.6</ele>
        <time>2012-04-01T18:56:41Z</time>
      </trkpt>
      <trkpt lat="60.0065104295" lon="23.5439495039">
        <ele>48.4</ele>
        <time>2012-04-01T18:56:45Z</time>
      </trkpt>
      <trkpt lat="60.0063450546" lon="23.5441712052">
        <ele>48.2</ele>
        <time>2012-04-01T18:56:48Z</time>
      </trkpt>
      <trkpt lat="60.0061762431" lon="23.544413945">
        <ele>48</ele>
        <time>2012-04-01T18:56:51Z</time>
      </trkpt>
      <trkpt lat="60.0060060068" lon="23.5446545055">
        <ele>47.6</ele>
        <time>2012-04-01T18:56:54Z</time>
      </trkpt>
      <trkpt lat="60.0058416377" lon="23.5448981674">
        <ele>47</ele>
        <time>2012-04-01T18:56:57Z</time>
      </trkpt>
      <trkpt lat="60.0056852314" lon="23.5451658853">
        <ele>46.6</ele>
        <time>2012-04-01T18:57:00Z</time>
      </trkpt>
      <trkpt lat="60.0055399731" lon="23.5454615987">
        <ele>46</ele>
        <time>2012-04-01T18:57:03Z</time>
      </trkpt>
      <trkpt lat="60.0054139093" lon="23.5457496846">
        <ele>45.4</ele>
        <time>2012-04-01T18:57:06Z</time>
      </trkpt>
      <trkpt lat="60.0052967304" lon="23.5460263711">
        <ele>45</ele>
        <time>2012-04-01T18:57:08Z</time>
      </trkpt>
      <trkpt lat="60.0051339539" lon="23.5463416144">
        <ele>44</ele>
        <time>2012-04-01T18:57:11Z</time>
      </trkpt>
      <trkpt lat="60.0049650586" lon="23.5466271857">
        <ele>43.4</ele>
        <time>2012-04-01T18:57:14Z</time>
      </trkpt>
      <trkpt lat="60.0047965824" lon="23.5468598673">
        <ele>42.6</ele>
        <time>2012-04-01T18:57:17Z</time>
      </trkpt>
      <trkpt lat="60.0046419363" lon="23.547045694">
        <ele>41.6</ele>
        <time>2012-04-01T18:57:20Z</time>
      </trkpt>
      <trkpt lat="60.0044533436" lon="23.5472254857">
        <ele>40.8</ele>
        <time>2012-04-01T18:57:24Z</time>
      </trkpt>
      <trkpt lat="60.0042738871" lon="23.5473808023">
        <ele>40.2</ele>
        <time>2012-04-01T18:57:28Z</time>
      </trkpt>
      <trkpt lat="60.0041883079" lon="23.5474742605">
        <ele>40</ele>
        <time>2012-04-01T18:57:30Z</time>
      </trkpt>
      <trkpt lat="60.0040853782" lon="23.5476405574">
        <ele>39</ele>
        <time>2012-04-01T18:57:34Z</time>
      </trkpt>
      <trkpt lat="60.0040667704" lon="23.5476624342">
        <ele>39</ele>
        <time>2012-04-01T18:57:35Z</time>
      </trkpt>
      <trkpt lat="60.004035925" lon="23.5476278169">
        <ele>38.4</ele>
        <time>2012-04-01T18:57:39Z</time>
      </trkpt>
      <trkpt lat="60.0040473244" lon="23.5476054373">
        <ele>38.2</ele>
        <time>2012-04-01T18:57:40Z</time>
      </trkpt>
      <trkpt lat="60.0041583007" lon="23.5475101351">
        <ele>37.8</ele>
        <time>2012-04-01T18:57:46Z</time>
      </trkpt>
      <trkpt lat="60.0043354941" lon="23.5472783755">
        <ele>37.4</ele>
        <time>2012-04-01T18:57:52Z</time>
      </trkpt>
      <trkpt lat="60.0045380008" lon="23.5470828258">
        <ele>37.4</ele>
        <time>2012-04-01T18:57:57Z</time>
      </trkpt>
      <trkpt lat="60.004723157" lon="23.5468863541">
        <ele>37.4</ele>
        <time>2012-04-01T18:58:02Z</time>
      </trkpt>
      <trkpt lat="60.0049919645" lon="23.54654739">
        <ele>37.4</ele>
        <time>2012-04-01T18:58:09Z</time>
      </trkpt>
      <trkpt lat="60.0050262465" lon="23.5464919857">
        <ele>37.6</ele>
        <time>2012-04-01T18:58:10Z</time>
      </trkpt>
      <trkpt lat="60.0051939683" lon="23.5462028939">
        <ele>38.4</ele>
        <time>2012-04-01T18:58:15Z</time>
      </trkpt>
      <trkpt lat="60.005231603" lon="23.5461339947">
        <ele>38.4</ele>
        <time>2012-04-01T18:58:16Z</time>
      </trkpt>
      <trkpt lat="60.0053589241" lon="23.5458483396">
        <ele>38.8</ele>
        <time>2012-04-01T18:58:20Z</time>
      </trkpt>
      <trkpt lat="60.0054838982" lon="23.5455467588">
        <ele>39</ele>
        <time>2012-04-01T18:58:25Z</time>
      </trkpt>
      <trkpt lat="60.0056174219" lon="23.545240568">
        <ele>39</ele>
        <time>2012-04-01T18:58:30Z</time>
      </trkpt>
      <trkpt lat="60.0056443278" lon="23.5451724231">
        <ele>39.4</ele>
        <time>2012-04-01T18:58:31Z</time>
      </trkpt>
      <trkpt lat="60.0058273885" lon="23.5448463672">
        <ele>40.2</ele>
        <time>2012-04-01T18:58:37Z</time>
      </trkpt>
      <trkpt lat="60.0059939368" lon="23.5446212294">
        <ele>40.8</ele>
        <time>2012-04-01T18:58:42Z</time>
      </trkpt>
      <trkpt lat="60.006162413" lon="23.5444383363">
        <ele>41.6</ele>
        <time>2012-04-01T18:58:47Z</time>
      </trkpt>
      <trkpt lat="60.0063085933" lon="23.5442292918">
        <ele>42.4</ele>
        <time>2012-04-01T18:58:52Z</time>
      </trkpt>
      <trkpt lat="60.0064618983" lon="23.5440143798">
        <ele>42.8</ele>
        <time>2012-04-01T18:58:57Z</time>
      </trkpt>
      <trkpt lat="60.0066046421" lon="23.5437631743">
        <ele>43</ele>
        <time>2012-04-01T18:59:02Z</time>
      </trkpt>
      <trkpt lat="60.0066255968" lon="23.5437107036">
        <ele>43.2</ele>
        <time>2012-04-01T18:59:03Z</time>
      </trkpt>
      <trkpt lat="60.0066283628" lon="23.5435258827">
        <ele>43.6</ele>
        <time>2012-04-01T18:59:06Z</time>
      </trkpt>
      <trkpt lat="60.0066144489" lon="23.5434620126">
        <ele>43.8</ele>
        <time>2012-04-01T18:59:07Z</time>
      </trkpt>
      <trkpt lat="60.0064872116" lon="23.5430341166">
        <ele>44.6</ele>
        <time>2012-04-01T18:59:13Z</time>
      </trkpt>
      <trkpt lat="60.0063788337" lon="23.5427283449">
        <ele>45</ele>
        <time>2012-04-01T18:59:17Z</time>
      </trkpt>
      <trkpt lat="60.006261068" lon="23.5424194719">
        <ele>45.2</ele>
        <time>2012-04-01T18:59:21Z</time>
      </trkpt>
      <trkpt lat="60.0062288815" lon="23.5423429452">
        <ele>45.2</ele>
        <time>2012-04-01T18:59:22Z</time>
      </trkpt>
      <trkpt lat="60.0060843775" lon="23.541917899">
        <ele>45.2</ele>
        <time>2012-04-01T18:59:27Z</time>
      </trkpt>
      <trkpt lat="60.0059570565" lon="23.5415876522">
        <ele>45.4</ele>
        <time>2012-04-01T18:59:31Z</time>
      </trkpt>
      <trkpt lat="60.005828059" lon="23.5412631888">
        <ele>45.4</ele>
        <time>2012-04-01T18:59:35Z</time>
      </trkpt>
      <trkpt lat="60.0056863211" lon="23.5409536452">
        <ele>45.4</ele>
        <time>2012-04-01T18:59:39Z</time>
      </trkpt>
      <trkpt lat="60.0055246342" lon="23.5406735221">
        <ele>45.4</ele>
        <time>2012-04-01T18:59:43Z</time>
      </trkpt>
      <trkpt lat="60.0053540626" lon="23.5404097437">
        <ele>45.4</ele>
        <time>2012-04-01T18:59:47Z</time>
      </trkpt>
      <trkpt lat="60.0051794676" lon="23.5401680936">
        <ele>45.4</ele>
        <time>2012-04-01T18:59:51Z</time>
      </trkpt>
      <trkpt lat="60.0049983347" lon="23.5399349091">
        <ele>45.4</ele>
        <time>2012-04-01T18:59:55Z</time>
      </trkpt>
      <trkpt lat="60.0048111669" lon="23.5396981204">
        <ele>45.4</ele>
        <time>2012-04-01T18:59:59Z</time>
      </trkpt>
      <trkpt lat="60.0046142761" lon="23.5394763354">
        <ele>45.6</ele>
        <time>2012-04-01T19:00:03Z</time>
      </trkpt>
      <trkpt lat="60.0044273597" lon="23.5392169156">
        <ele>45.6</ele>
        <time>2012-04-01T19:00:07Z</time>
      </trkpt>
      <trkpt lat="60.0042440476" lon="23.538954143">
        <ele>45.6</ele>
        <time>2012-04-01T19:00:11Z</time>
      </trkpt>
      <trkpt lat="60.0040978672" lon="23.5387399016">
        <ele>45.6</ele>
        <time>2012-04-01T19:00:14Z</time>
      </trkpt>
      <trkpt lat="60.0039557102" lon="23.5385180327">
        <ele>45.2</ele>
        <time>2012-04-01T19:00:17Z</time>
      </trkpt>
      <trkpt lat="60.0037628427" lon="23.5382415977">
        <ele>44.6</ele>
        <time>2012-04-01T19:00:21Z</time>
      </trkpt>
      <trkpt lat="60.003614986" lon="23.5380137776">
        <ele>44.4</ele>
        <time>2012-04-01T19:00:24Z</time>
      </trkpt>
      <trkpt lat="60.003475595" lon="23.5377787492">
        <ele>44</ele>
        <time>2012-04-01T19:00:27Z</time>
      </trkpt>
      <trkpt lat="60.0033410655" lon="23.5375339977">
        <ele>44</ele>
        <time>2012-04-01T19:00:30Z</time>
      </trkpt>
      <trkpt lat="60.0031735951" lon="23.5372264658">
        <ele>43.8</ele>
        <time>2012-04-01T19:00:34Z</time>
      </trkpt>
      <trkpt lat="60.003018949" lon="23.5369263937">
        <ele>43</ele>
        <time>2012-04-01T19:00:38Z</time>
      </trkpt>
      <trkpt lat="60.0028775464" lon="23.5366314347">
        <ele>42.4</ele>
        <time>2012-04-01T19:00:42Z</time>
      </trkpt>
      <trkpt lat="60.0027488004" lon="23.5363165267">
        <ele>42</ele>
        <time>2012-04-01T19:00:46Z</time>
      </trkpt>
      <trkpt lat="60.002609158" lon="23.5360100006">
        <ele>41.8</ele>
        <time>2012-04-01T19:00:50Z</time>
      </trkpt>
      <trkpt lat="60.0024659113" lon="23.5357255189">
        <ele>41.6</ele>
        <time>2012-04-01T19:00:54Z</time>
      </trkpt>
      <trkpt lat="60.0023315494" lon="23.5354276262">
        <ele>41.6</ele>
        <time>2012-04-01T19:00:58Z</time>
      </trkpt>
      <trkpt lat="60.0019442218" lon="23.5346535577">
        <ele>40.4</ele>
        <time>2012-04-01T19:01:08Z</time>
      </trkpt>
      <trkpt lat="60.0017576407" lon="23.5343418349">
        <ele>40</ele>
        <time>2012-04-01T19:01:12Z</time>
      </trkpt>
      <trkpt lat="60.0016020727" lon="23.5341127576">
        <ele>39.8</ele>
        <time>2012-04-01T19:01:15Z</time>
      </trkpt>
      <trkpt lat="60.0014397153" lon="23.5338957502">
        <ele>39.6</ele>
        <time>2012-04-01T19:01:18Z</time>
      </trkpt>
      <trkpt lat="60.0012751786" lon="23.5336811735">
        <ele>39</ele>
        <time>2012-04-01T19:01:21Z</time>
      </trkpt>
      <trkpt lat="60.0011036011" lon="23.5334759846">
        <ele>38.4</ele>
        <time>2012-04-01T19:01:24Z</time>
      </trkpt>
      <trkpt lat="60.0009352925" lon="23.5332852964">
        <ele>38.2</ele>
        <time>2012-04-01T19:01:27Z</time>
      </trkpt>
      <trkpt lat="60.0007736057" lon="23.533086813">
        <ele>37.8</ele>
        <time>2012-04-01T19:01:30Z</time>
      </trkpt>
      <trkpt lat="60.0005736974" lon="23.5328446599">
        <ele>37.2</ele>
        <time>2012-04-01T19:01:34Z</time>
      </trkpt>
      <trkpt lat="60.0003851884" lon="23.5326118107">
        <ele>36.4</ele>
        <time>2012-04-01T19:01:38Z</time>
      </trkpt>
      <trkpt lat="60.0002037203" lon="23.5323681489">
        <ele>36</ele>
        <time>2012-04-01T19:01:42Z</time>
      </trkpt>
      <trkpt lat="60.0000174745" lon="23.5321078909">
        <ele>35.6</ele>
        <time>2012-04-01T19:01:46Z</time>
      </trkpt>
      <trkpt lat="59.9998607329" lon="23.531881831">
        <ele>35.6</ele>
        <time>2012-04-01T19:01:49Z</time>
      </trkpt>
      <trkpt lat="59.9997044105" lon="23.5316324695">
        <ele>35.2</ele>
        <time>2012-04-01T19:01:52Z</time>
      </trkpt>
      <trkpt lat="59.999559236" lon="23.5313886401">
        <ele>34.6</ele>
        <time>2012-04-01T19:01:55Z</time>
      </trkpt>
      <trkpt lat="59.9993847248" lon="23.5310969499">
        <ele>34</ele>
        <time>2012-04-01T19:01:59Z</time>
      </trkpt>
      <trkpt lat="59.9992272289" lon="23.5308146475">
        <ele>33.6</ele>
        <time>2012-04-01T19:02:03Z</time>
      </trkpt>
      <trkpt lat="59.9990629437" lon="23.5305448342">
        <ele>33.4</ele>
        <time>2012-04-01T19:02:07Z</time>
      </trkpt>
      <trkpt lat="59.9988990776" lon="23.5302779545">
        <ele>33.2</ele>
        <time>2012-04-01T19:02:11Z</time>
      </trkpt>
      <trkpt lat="59.9986902844" lon="23.5299143477">
        <ele>32.2</ele>
        <time>2012-04-01T19:02:16Z</time>
      </trkpt>
      <trkpt lat="59.9985177849" lon="23.5296193048">
        <ele>31.8</ele>
        <time>2012-04-01T19:02:20Z</time>
      </trkpt>
      <trkpt lat="59.9982972571" lon="23.5292449691">
        <ele>31.4</ele>
        <time>2012-04-01T19:02:25Z</time>
      </trkpt>
      <trkpt lat="59.9981585367" lon="23.5290153051">
        <ele>31.4</ele>
        <time>2012-04-01T19:02:28Z</time>
      </trkpt>
      <trkpt lat="59.9980110153" lon="23.5288075178">
        <ele>31.2</ele>
        <time>2012-04-01T19:02:31Z</time>
      </trkpt>
      <trkpt lat="59.9978603087" lon="23.5286019936">
        <ele>30.8</ele>
        <time>2012-04-01T19:02:34Z</time>
      </trkpt>
      <trkpt lat="59.997704573" lon="23.5283877522">
        <ele>30.2</ele>
        <time>2012-04-01T19:02:37Z</time>
      </trkpt>
      <trkpt lat="59.9975479153" lon="23.5281573338">
        <ele>30</ele>
        <time>2012-04-01T19:02:40Z</time>
      </trkpt>
      <trkpt lat="59.9973743261" lon="23.5279073017">
        <ele>29.6</ele>
        <time>2012-04-01T19:02:43Z</time>
      </trkpt>
      <trkpt lat="59.9972005693" lon="23.5276675794">
        <ele>28.8</ele>
        <time>2012-04-01T19:02:46Z</time>
      </trkpt>
      <trkpt lat="59.9970324284" lon="23.5274384182">
        <ele>28.4</ele>
        <time>2012-04-01T19:02:49Z</time>
      </trkpt>
      <trkpt lat="59.9968765251" lon="23.5272283678">
        <ele>28</ele>
        <time>2012-04-01T19:02:52Z</time>
      </trkpt>
      <trkpt lat="59.9967186101" lon="23.5270309741">
        <ele>27.6</ele>
        <time>2012-04-01T19:02:55Z</time>
      </trkpt>
      <trkpt lat="59.9965228089" lon="23.5267749908">
        <ele>27</ele>
        <time>2012-04-01T19:02:59Z</time>
      </trkpt>
      <trkpt lat="59.9962809073" lon="23.5264482644">
        <ele>26</ele>
        <time>2012-04-01T19:03:04Z</time>
      </trkpt>
      <trkpt lat="59.9962636406" lon="23.5257886088">
        <ele>25.2</ele>
        <time>2012-04-01T19:03:13Z</time>
      </trkpt>
      <trkpt lat="59.9963026164" lon="23.5257507227">
        <ele>25.2</ele>
        <time>2012-04-01T19:03:14Z</time>
      </trkpt>
      <trkpt lat="59.9966718391" lon="23.5253740401">
        <ele>25</ele>
        <time>2012-04-01T19:03:24Z</time>
      </trkpt>
      <trkpt lat="59.9967155926" lon="23.5253514089">
        <ele>25</ele>
        <time>2012-04-01T19:03:25Z</time>
      </trkpt>
      <trkpt lat="59.9968595098" lon="23.5253192224">
        <ele>24.8</ele>
        <time>2012-04-01T19:03:28Z</time>
      </trkpt>
      <trkpt lat="59.9969583324" lon="23.5253219047">
        <ele>24.8</ele>
        <time>2012-04-01T19:03:30Z</time>
      </trkpt>
      <trkpt lat="59.9971493559" lon="23.525370352">
        <ele>25.2</ele>
        <time>2012-04-01T19:03:34Z</time>
      </trkpt>
      <trkpt lat="59.9973466659" lon="23.5254684203">
        <ele>25.8</ele>
        <time>2012-04-01T19:03:38Z</time>
      </trkpt>
      <trkpt lat="59.9975455683" lon="23.5255600344">
        <ele>26</ele>
        <time>2012-04-01T19:03:42Z</time>
      </trkpt>
      <trkpt lat="59.9977459796" lon="23.5256570968">
        <ele>26.4</ele>
        <time>2012-04-01T19:03:46Z</time>
      </trkpt>
      <trkpt lat="59.9979463908" lon="23.5257536563">
        <ele>26.4</ele>
        <time>2012-04-01T19:03:50Z</time>
      </trkpt>
      <trkpt lat="59.9981411862" lon="23.5258359666">
        <ele>26.6</ele>
        <time>2012-04-01T19:03:54Z</time>
      </trkpt>
      <trkpt lat="59.998324163" lon="23.5258625372">
        <ele>27</ele>
        <time>2012-04-01T19:03:58Z</time>
      </trkpt>
      <trkpt lat="59.9985037033" lon="23.5258682369">
        <ele>27.6</ele>
        <time>2012-04-01T19:04:02Z</time>
      </trkpt>
      <trkpt lat="59.9988389793" lon="23.5257423408">
        <ele>28.2</ele>
        <time>2012-04-01T19:04:10Z</time>
      </trkpt>
      <trkpt lat="59.9991539711" lon="23.5255892873">
        <ele>28.6</ele>
        <time>2012-04-01T19:04:17Z</time>
      </trkpt>
      <trkpt lat="59.9993344334" lon="23.5254998524">
        <ele>29.4</ele>
        <time>2012-04-01T19:04:21Z</time>
      </trkpt>
      <trkpt lat="59.9995297317" lon="23.5254015327">
        <ele>29.8</ele>
        <time>2012-04-01T19:04:25Z</time>
      </trkpt>
      <trkpt lat="59.9997185759" lon="23.525313858">
        <ele>30.2</ele>
        <time>2012-04-01T19:04:29Z</time>
      </trkpt>
      <trkpt lat="59.9999098509" lon="23.525227273">
        <ele>30.4</ele>
        <time>2012-04-01T19:04:33Z</time>
      </trkpt>
      <trkpt lat="60.000101964" lon="23.5251521712">
        <ele>31.2</ele>
        <time>2012-04-01T19:04:37Z</time>
      </trkpt>
      <trkpt lat="60.0002915626" lon="23.5250898937">
        <ele>31.8</ele>
        <time>2012-04-01T19:04:41Z</time>
      </trkpt>
      <trkpt lat="60.0004822508" lon="23.525013786">
        <ele>32.2</ele>
        <time>2012-04-01T19:04:45Z</time>
      </trkpt>
      <trkpt lat="60.0006674908" lon="23.524929967">
        <ele>32.6</ele>
        <time>2012-04-01T19:04:49Z</time>
      </trkpt>
      <trkpt lat="60.0008460253" lon="23.5248274564">
        <ele>33.4</ele>
        <time>2012-04-01T19:04:53Z</time>
      </trkpt>
      <trkpt lat="60.0009305148" lon="23.5247591439">
        <ele>33.8</ele>
        <time>2012-04-01T19:04:55Z</time>
      </trkpt>
      <trkpt lat="60.0010940457" lon="23.524591925">
        <ele>34.2</ele>
        <time>2012-04-01T19:04:59Z</time>
      </trkpt>
      <trkpt lat="60.0012803754" lon="23.5243329243">
        <ele>34.6</ele>
        <time>2012-04-01T19:05:04Z</time>
      </trkpt>
      <trkpt lat="60.0013354444" lon="23.524239047">
        <ele>34.6</ele>
        <time>2012-04-01T19:05:06Z</time>
      </trkpt>
      <trkpt lat="60.0015020766" lon="23.5238774518">
        <ele>35.4</ele>
        <time>2012-04-01T19:05:11Z</time>
      </trkpt>
      <trkpt lat="60.0015312456" lon="23.5238042778">
        <ele>35.6</ele>
        <time>2012-04-01T19:05:12Z</time>
      </trkpt>
      <trkpt lat="60.0016294815" lon="23.5234787248">
        <ele>36.2</ele>
        <time>2012-04-01T19:05:16Z</time>
      </trkpt>
      <trkpt lat="60.0017086904" lon="23.5230350709">
        <ele>36.6</ele>
        <time>2012-04-01T19:05:21Z</time>
      </trkpt>
      <trkpt lat="60.0017406255" lon="23.5227642517">
        <ele>36.8</ele>
        <time>2012-04-01T19:05:24Z</time>
      </trkpt>
      <trkpt lat="60.0017388653" lon="23.5222890818">
        <ele>37</ele>
        <time>2012-04-01T19:05:29Z</time>
      </trkpt>
      <trkpt lat="60.0017202575" lon="23.5219980622">
        <ele>37</ele>
        <time>2012-04-01T19:05:32Z</time>
      </trkpt>
      <trkpt lat="60.0016361032" lon="23.5215094813">
        <ele>37</ele>
        <time>2012-04-01T19:05:37Z</time>
      </trkpt>
      <trkpt lat="60.001532922" lon="23.5211644823">
        <ele>37</ele>
        <time>2012-04-01T19:05:41Z</time>
      </trkpt>
      <trkpt lat="60.0013936986" lon="23.5208472273">
        <ele>37.2</ele>
        <time>2012-04-01T19:05:45Z</time>
      </trkpt>
      <trkpt lat="60.0012153318" lon="23.5205796771">
        <ele>37.2</ele>
        <time>2012-04-01T19:05:49Z</time>
      </trkpt>
      <trkpt lat="60.0010140824" lon="23.5203827024">
        <ele>37.2</ele>
        <time>2012-04-01T19:05:53Z</time>
      </trkpt>
      <trkpt lat="60.0008070495" lon="23.5202225243">
        <ele>37.2</ele>
        <time>2012-04-01T19:05:57Z</time>
      </trkpt>
      <trkpt lat="60.0006070573" lon="23.520040218">
        <ele>37.2</ele>
        <time>2012-04-01T19:06:01Z</time>
      </trkpt>
      <trkpt lat="60.0005628009" lon="23.5199822991">
        <ele>37.2</ele>
        <time>2012-04-01T19:06:02Z</time>
      </trkpt>
      <trkpt lat="60.0004702647" lon="23.5198419023">
        <ele>37.2</ele>
        <time>2012-04-01T19:06:04Z</time>
      </trkpt>
      <trkpt lat="60.0004074843" lon="23.5197151679">
        <ele>37.2</ele>
        <time>2012-04-01T19:06:06Z</time>
      </trkpt>
      <trkpt lat="60.00028997" lon="23.5194217176">
        <ele>37.2</ele>
        <time>2012-04-01T19:06:09Z</time>
      </trkpt>
      <trkpt lat="60.0001712823" lon="23.518907991">
        <ele>37.2</ele>
        <time>2012-04-01T19:06:14Z</time>
      </trkpt>
      <trkpt lat="60.0000844459" lon="23.518522675">
        <ele>37.2</ele>
        <time>2012-04-01T19:06:18Z</time>
      </trkpt>
      <trkpt lat="59.9999888922" lon="23.518144316">
        <ele>37.2</ele>
        <time>2012-04-01T19:06:22Z</time>
      </trkpt>
      <trkpt lat="59.9998948473" lon="23.5177439127">
        <ele>37.2</ele>
        <time>2012-04-01T19:06:26Z</time>
      </trkpt>
      <trkpt lat="59.9998275406" lon="23.51742934">
        <ele>37.2</ele>
        <time>2012-04-01T19:06:29Z</time>
      </trkpt>
      <trkpt lat="59.9998036522" lon="23.5173358818">
        <ele>37.2</ele>
        <time>2012-04-01T19:06:30Z</time>
      </trkpt>
      <trkpt lat="59.9996964477" lon="23.516967162">
        <ele>37.2</ele>
        <time>2012-04-01T19:06:34Z</time>
      </trkpt>
      <trkpt lat="59.9995880697" lon="23.5166012921">
        <ele>37.2</ele>
        <time>2012-04-01T19:06:38Z</time>
      </trkpt>
      <trkpt lat="59.9994746626" lon="23.5162360927">
        <ele>37.2</ele>
        <time>2012-04-01T19:06:42Z</time>
      </trkpt>
      <trkpt lat="59.9993581542" lon="23.5158883277">
        <ele>37.2</ele>
        <time>2012-04-01T19:06:46Z</time>
      </trkpt>
      <trkpt lat="59.9992237085" lon="23.5155232121">
        <ele>37.2</ele>
        <time>2012-04-01T19:06:50Z</time>
      </trkpt>
      <trkpt lat="59.9990987344" lon="23.5151713399">
        <ele>37.2</ele>
        <time>2012-04-01T19:06:54Z</time>
      </trkpt>
      <trkpt lat="59.9989725868" lon="23.5148477148">
        <ele>37.2</ele>
        <time>2012-04-01T19:06:58Z</time>
      </trkpt>
      <trkpt lat="59.9988376382" lon="23.5145321362">
        <ele>37.2</ele>
        <time>2012-04-01T19:07:02Z</time>
      </trkpt>
      <trkpt lat="59.99869699" lon="23.514210858">
        <ele>37.2</ele>
        <time>2012-04-01T19:07:06Z</time>
      </trkpt>
      <trkpt lat="59.9985517316" lon="23.5138984646">
        <ele>37.2</ele>
        <time>2012-04-01T19:07:10Z</time>
      </trkpt>
      <trkpt lat="59.9983977561" lon="23.5135904298">
        <ele>37.2</ele>
        <time>2012-04-01T19:07:14Z</time>
      </trkpt>
      <trkpt lat="59.9982459599" lon="23.5133076245">
        <ele>37.2</ele>
        <time>2012-04-01T19:07:18Z</time>
      </trkpt>
      <trkpt lat="59.9980939122" lon="23.5130340393">
        <ele>37.2</ele>
        <time>2012-04-01T19:07:22Z</time>
      </trkpt>
      <trkpt lat="59.9979394338" lon="23.5127569336">
        <ele>37.2</ele>
        <time>2012-04-01T19:07:26Z</time>
      </trkpt>
      <trkpt lat="59.9977800101" lon="23.5124972624">
        <ele>37.2</ele>
        <time>2012-04-01T19:07:30Z</time>
      </trkpt>
      <trkpt lat="59.9976243582" lon="23.5122537682">
        <ele>37.2</ele>
        <time>2012-04-01T19:07:34Z</time>
      </trkpt>
      <trkpt lat="59.9974535351" lon="23.5119984555">
        <ele>36.8</ele>
        <time>2012-04-01T19:07:38Z</time>
      </trkpt>
      <trkpt lat="59.9972772637" lon="23.5117572244">
        <ele>36.2</ele>
        <time>2012-04-01T19:07:42Z</time>
      </trkpt>
      <trkpt lat="59.9970910179" lon="23.5115227827">
        <ele>35.8</ele>
        <time>2012-04-01T19:07:46Z</time>
      </trkpt>
      <trkpt lat="59.9968971446" lon="23.5112986507">
        <ele>35.6</ele>
        <time>2012-04-01T19:07:50Z</time>
      </trkpt>
      <trkpt lat="59.9967045285" lon="23.5110796316">
        <ele>35.4</ele>
        <time>2012-04-01T19:07:54Z</time>
      </trkpt>
      <trkpt lat="59.9965266646" lon="23.5108853392">
        <ele>35.4</ele>
        <time>2012-04-01T19:07:58Z</time>
      </trkpt>
      <trkpt lat="59.9963508123" lon="23.5107318666">
        <ele>35.2</ele>
        <time>2012-04-01T19:08:02Z</time>
      </trkpt>
      <trkpt lat="59.9963099925" lon="23.5107017756">
        <ele>35.2</ele>
        <time>2012-04-01T19:08:03Z</time>
      </trkpt>
      <trkpt lat="59.9961664943" lon="23.5108721796">
        <ele>34.6</ele>
        <time>2012-04-01T19:08:07Z</time>
      </trkpt>
      <trkpt lat="59.996144869" lon="23.5109533164">
        <ele>34.4</ele>
        <time>2012-04-01T19:08:08Z</time>
      </trkpt>
      <trkpt lat="59.9960385865" lon="23.5113940367">
        <ele>33.8</ele>
        <time>2012-04-01T19:08:13Z</time>
      </trkpt>
      <trkpt lat="59.9959602996" lon="23.5117303185">
        <ele>33.6</ele>
        <time>2012-04-01T19:08:16Z</time>
      </trkpt>
      <trkpt lat="59.9958592139" lon="23.512152431">
        <ele>33.4</ele>
        <time>2012-04-01T19:08:20Z</time>
      </trkpt>
      <trkpt lat="59.9957894765" lon="23.512458538">
        <ele>33.4</ele>
        <time>2012-04-01T19:08:23Z</time>
      </trkpt>
      <trkpt lat="59.9957204096" lon="23.5127534971">
        <ele>32.8</ele>
        <time>2012-04-01T19:08:26Z</time>
      </trkpt>
      <trkpt lat="59.9956049909" lon="23.5132396473">
        <ele>32.2</ele>
        <time>2012-04-01T19:08:31Z</time>
      </trkpt>
      <trkpt lat="59.9955244408" lon="23.5136367817">
        <ele>31.8</ele>
        <time>2012-04-01T19:08:35Z</time>
      </trkpt>
      <trkpt lat="59.9954595649" lon="23.5139272983">
        <ele>31.6</ele>
        <time>2012-04-01T19:08:38Z</time>
      </trkpt>
      <trkpt lat="59.9953728122" lon="23.5144260214">
        <ele>31.4</ele>
        <time>2012-04-01T19:08:43Z</time>
      </trkpt>
      <trkpt lat="59.9953200901" lon="23.5148626346">
        <ele>31.2</ele>
        <time>2012-04-01T19:08:47Z</time>
      </trkpt>
      <trkpt lat="59.9952950282" lon="23.5152252355">
        <ele>31.2</ele>
        <time>2012-04-01T19:08:50Z</time>
      </trkpt>
      <trkpt lat="59.9952834612" lon="23.515624214">
        <ele>30.8</ele>
        <time>2012-04-01T19:08:53Z</time>
      </trkpt>
      <trkpt lat="59.9952781806" lon="23.5160384475">
        <ele>30.2</ele>
        <time>2012-04-01T19:08:56Z</time>
      </trkpt>
      <trkpt lat="59.995271978" lon="23.5164661758">
        <ele>30</ele>
        <time>2012-04-01T19:08:59Z</time>
      </trkpt>
      <trkpt lat="59.9952654401" lon="23.5170019469">
        <ele>29.6</ele>
        <time>2012-04-01T19:09:03Z</time>
      </trkpt>
      <trkpt lat="59.9952407973" lon="23.5174093911">
        <ele>28.8</ele>
        <time>2012-04-01T19:09:06Z</time>
      </trkpt>
      <trkpt lat="59.9952026597" lon="23.5177957128">
        <ele>28.4</ele>
        <time>2012-04-01T19:09:09Z</time>
      </trkpt>
      <trkpt lat="59.9951544637" lon="23.5181977926">
        <ele>28</ele>
        <time>2012-04-01T19:09:12Z</time>
      </trkpt>
      <trkpt lat="59.9950934435" lon="23.5185714577">
        <ele>27.6</ele>
        <time>2012-04-01T19:09:15Z</time>
      </trkpt>
      <trkpt lat="59.9950138155" lon="23.5189308735">
        <ele>27.4</ele>
        <time>2012-04-01T19:09:18Z</time>
      </trkpt>
      <trkpt lat="59.9949313376" lon="23.5192689156">
        <ele>27.2</ele>
        <time>2012-04-01T19:09:21Z</time>
      </trkpt>
      <trkpt lat="59.9948323473" lon="23.5195992462">
        <ele>27.2</ele>
        <time>2012-04-01T19:09:24Z</time>
      </trkpt>
      <trkpt lat="59.9947273221" lon="23.519914741">
        <ele>27</ele>
        <time>2012-04-01T19:09:27Z</time>
      </trkpt>
      <trkpt lat="59.9946144179" lon="23.5202095324">
        <ele>27</ele>
        <time>2012-04-01T19:09:30Z</time>
      </trkpt>
      <trkpt lat="59.9944546589" lon="23.5205511786">
        <ele>27</ele>
        <time>2012-04-01T19:09:34Z</time>
      </trkpt>
      <trkpt lat="59.9943209676" lon="23.5208016298">
        <ele>27</ele>
        <time>2012-04-01T19:09:37Z</time>
      </trkpt>
      <trkpt lat="59.9941485519" lon="23.5210800765">
        <ele>27</ele>
        <time>2012-04-01T19:09:41Z</time>
      </trkpt>
      <trkpt lat="59.9939561873" lon="23.5213150212">
        <ele>26.8</ele>
        <time>2012-04-01T19:09:45Z</time>
      </trkpt>
      <trkpt lat="59.9937652476" lon="23.5215027757">
        <ele>26.8</ele>
        <time>2012-04-01T19:09:49Z</time>
      </trkpt>
      <trkpt lat="59.9935686083" lon="23.5216195356">
        <ele>26.8</ele>
        <time>2012-04-01T19:09:53Z</time>
      </trkpt>
      <trkpt lat="59.993511779" lon="23.5216447651">
        <ele>26.8</ele>
        <time>2012-04-01T19:09:54Z</time>
      </trkpt>
      <trkpt lat="59.9932526944" lon="23.5216949727">
        <ele>26.8</ele>
        <time>2012-04-01T19:09:59Z</time>
      </trkpt>
      <trkpt lat="59.993069969" lon="23.5216914523">
        <ele>26.8</ele>
        <time>2012-04-01T19:10:03Z</time>
      </trkpt>
      <trkpt lat="59.9928938653" lon="23.521664714">
        <ele>26.8</ele>
        <time>2012-04-01T19:10:06Z</time>
      </trkpt>
      <trkpt lat="59.9926555679" lon="23.5214948967">
        <ele>26.8</ele>
        <time>2012-04-01T19:10:11Z</time>
      </trkpt>
      <trkpt lat="59.9924648797" lon="23.5213175357">
        <ele>26.8</ele>
        <time>2012-04-01T19:10:15Z</time>
      </trkpt>
      <trkpt lat="59.9922731856" lon="23.5211267637">
        <ele>26.8</ele>
        <time>2012-04-01T19:10:19Z</time>
      </trkpt>
      <trkpt lat="59.99207202" lon="23.5209282803">
        <ele>26.8</ele>
        <time>2012-04-01T19:10:23Z</time>
      </trkpt>
      <trkpt lat="59.9918581977" lon="23.5207287073">
        <ele>26.8</ele>
        <time>2012-04-01T19:10:27Z</time>
      </trkpt>
      <trkpt lat="59.9916841895" lon="23.5205802638">
        <ele>26.8</ele>
        <time>2012-04-01T19:10:30Z</time>
      </trkpt>
      <trkpt lat="59.991629791" lon="23.5205396116">
        <ele>26.8</ele>
        <time>2012-04-01T19:10:31Z</time>
      </trkpt>
      <trkpt lat="59.9913882246" lon="23.5204390288">
        <ele>26.2</ele>
        <time>2012-04-01T19:10:35Z</time>
      </trkpt>
      <trkpt lat="59.9912816068" lon="23.5204070938">
        <ele>25.8</ele>
        <time>2012-04-01T19:10:37Z</time>
      </trkpt>
      <trkpt lat="59.9911577224" lon="23.5201688802">
        <ele>25.2</ele>
        <time>2012-04-01T19:10:41Z</time>
      </trkpt>
      <trkpt lat="59.9911945189" lon="23.5198395553">
        <ele>24.6</ele>
        <time>2012-04-01T19:10:44Z</time>
      </trkpt>
      <trkpt lat="59.9912379371" lon="23.5196543991">
        <ele>24.2</ele>
        <time>2012-04-01T19:10:46Z</time>
      </trkpt>
      <trkpt lat="59.9913655097" lon="23.5191760441">
        <ele>23.6</ele>
        <time>2012-04-01T19:10:51Z</time>
      </trkpt>
      <trkpt lat="59.9914437966" lon="23.5188867009">
        <ele>22.8</ele>
        <time>2012-04-01T19:10:54Z</time>
      </trkpt>
      <trkpt lat="59.9915922401" lon="23.5184552007">
        <ele>22</ele>
        <time>2012-04-01T19:10:59Z</time>
      </trkpt>
      <trkpt lat="59.9916528412" lon="23.5182987106">
        <ele>21.6</ele>
        <time>2012-04-01T19:11:01Z</time>
      </trkpt>
      <trkpt lat="59.991771948" lon="23.5178717367">
        <ele>21.2</ele>
        <time>2012-04-01T19:11:06Z</time>
      </trkpt>
      <trkpt lat="59.9920042104" lon="23.51737469">
        <ele>20.8</ele>
        <time>2012-04-01T19:11:13Z</time>
      </trkpt>
      <trkpt lat="59.9921353034" lon="23.5171522344">
        <ele>20.8</ele>
        <time>2012-04-01T19:11:17Z</time>
      </trkpt>
      <trkpt lat="59.9922440166" lon="23.5168330516">
        <ele>20.8</ele>
        <time>2012-04-01T19:11:22Z</time>
      </trkpt>
      <trkpt lat="59.9923039472" lon="23.5163793394">
        <ele>21.6</ele>
        <time>2012-04-01T19:11:27Z</time>
      </trkpt>
      <trkpt lat="59.9923468625" lon="23.5159399602">
        <ele>22</ele>
        <time>2012-04-01T19:11:32Z</time>
      </trkpt>
      <trkpt lat="59.9923834076" lon="23.5156070311">
        <ele>22.2</ele>
        <time>2012-04-01T19:11:36Z</time>
      </trkpt>
      <trkpt lat="59.9924570845" lon="23.5152688214">
        <ele>22.2</ele>
        <time>2012-04-01T19:11:40Z</time>
      </trkpt>
      <trkpt lat="59.9926239681" lon="23.5148690048">
        <ele>23.2</ele>
        <time>2012-04-01T19:11:45Z</time>
      </trkpt>
      <trkpt lat="59.9927771054" lon="23.5146069866">
        <ele>23.6</ele>
        <time>2012-04-01T19:11:49Z</time>
      </trkpt>
      <trkpt lat="59.9929345175" lon="23.5143698627">
        <ele>24</ele>
        <time>2012-04-01T19:11:53Z</time>
      </trkpt>
      <trkpt lat="59.9931064303" lon="23.5141152205">
        <ele>24.2</ele>
        <time>2012-04-01T19:11:57Z</time>
      </trkpt>
      <trkpt lat="59.9932373556" lon="23.5138932678">
        <ele>24.2</ele>
        <time>2012-04-01T19:12:00Z</time>
      </trkpt>
      <trkpt lat="59.9932780916" lon="23.5138223569">
        <ele>24.2</ele>
        <time>2012-04-01T19:12:01Z</time>
      </trkpt>
      <trkpt lat="59.9935891439" lon="23.5131580076">
        <ele>24.4</ele>
        <time>2012-04-01T19:12:09Z</time>
      </trkpt>
      <trkpt lat="59.9937803351" lon="23.5123500762">
        <ele>24.6</ele>
        <time>2012-04-01T19:12:18Z</time>
      </trkpt>
      <trkpt lat="59.9938463844" lon="23.5120127886">
        <ele>24.6</ele>
        <time>2012-04-01T19:12:22Z</time>
      </trkpt>
      <trkpt lat="59.9938579514" lon="23.5119232699">
        <ele>24.6</ele>
        <time>2012-04-01T19:12:23Z</time>
      </trkpt>
      <trkpt lat="59.9939234979" lon="23.511516161">
        <ele>24.6</ele>
        <time>2012-04-01T19:12:28Z</time>
      </trkpt>
      <trkpt lat="59.9939581151" lon="23.5113422366">
        <ele>24.6</ele>
        <time>2012-04-01T19:12:30Z</time>
      </trkpt>
      <trkpt lat="59.9939978454" lon="23.511066975">
        <ele>24.6</ele>
        <time>2012-04-01T19:12:33Z</time>
      </trkpt>
      <trkpt lat="59.9940852686" lon="23.5105996002">
        <ele>24.6</ele>
        <time>2012-04-01T19:12:38Z</time>
      </trkpt>
      <trkpt lat="59.9941468755" lon="23.5102192296">
        <ele>24.6</ele>
        <time>2012-04-01T19:12:42Z</time>
      </trkpt>
      <trkpt lat="59.9941865219" lon="23.5098326564">
        <ele>24.6</ele>
        <time>2012-04-01T19:12:46Z</time>
      </trkpt>
      <trkpt lat="59.9942061356" lon="23.5094247931">
        <ele>24.6</ele>
        <time>2012-04-01T19:12:50Z</time>
      </trkpt>
      <trkpt lat="59.9941900423" lon="23.5090192768">
        <ele>24.6</ele>
        <time>2012-04-01T19:12:54Z</time>
      </trkpt>
      <trkpt lat="59.9941616277" lon="23.5086169456">
        <ele>24.6</ele>
        <time>2012-04-01T19:12:58Z</time>
      </trkpt>
      <trkpt lat="59.9941224842" lon="23.5082216552">
        <ele>24.6</ele>
        <time>2012-04-01T19:13:02Z</time>
      </trkpt>
      <trkpt lat="59.9940850171" lon="23.5077916637">
        <ele>24.6</ele>
        <time>2012-04-01T19:13:06Z</time>
      </trkpt>
      <trkpt lat="59.994037827" lon="23.5072792782">
        <ele>24.6</ele>
        <time>2012-04-01T19:13:11Z</time>
      </trkpt>
      <trkpt lat="59.9939915589" lon="23.5068613566">
        <ele>25</ele>
        <time>2012-04-01T19:13:15Z</time>
      </trkpt>
      <trkpt lat="59.9939466319" lon="23.5059599671">
        <ele>26</ele>
        <time>2012-04-01T19:13:24Z</time>
      </trkpt>
      <trkpt lat="59.9939506553" lon="23.5055786745">
        <ele>26.2</ele>
        <time>2012-04-01T19:13:28Z</time>
      </trkpt>
      <trkpt lat="59.9939705204" lon="23.5052144809">
        <ele>26.2</ele>
        <time>2012-04-01T19:13:32Z</time>
      </trkpt>
      <trkpt lat="59.9939761362" lon="23.5051323383">
        <ele>26.4</ele>
        <time>2012-04-01T19:13:33Z</time>
      </trkpt>
      <trkpt lat="59.9939931515" lon="23.5049796201">
        <ele>26.8</ele>
        <time>2012-04-01T19:13:35Z</time>
      </trkpt>
      <trkpt lat="59.9939702689" lon="23.5046248981">
        <ele>27.6</ele>
        <time>2012-04-01T19:13:40Z</time>
      </trkpt>
      <trkpt lat="59.9939024593" lon="23.5045057913">
        <ele>27.8</ele>
        <time>2012-04-01T19:13:42Z</time>
      </trkpt>
      <trkpt lat="59.9936869607" lon="23.5042156937">
        <ele>28</ele>
        <time>2012-04-01T19:13:47Z</time>
      </trkpt>
      <trkpt lat="59.9934961886" lon="23.5039597943">
        <ele>28.2</ele>
        <time>2012-04-01T19:13:51Z</time>
      </trkpt>
      <trkpt lat="59.9933433028" lon="23.5037347403">
        <ele>28.4</ele>
        <time>2012-04-01T19:13:54Z</time>
      </trkpt>
      <trkpt lat="59.9931955299" lon="23.5034596463">
        <ele>28.4</ele>
        <time>2012-04-01T19:13:57Z</time>
      </trkpt>
      <trkpt lat="59.9930404647" lon="23.5031947783">
        <ele>28.4</ele>
        <time>2012-04-01T19:14:00Z</time>
      </trkpt>
      <trkpt lat="59.9928322583" lon="23.5028357815">
        <ele>28.6</ele>
        <time>2012-04-01T19:14:04Z</time>
      </trkpt>
      <trkpt lat="59.992683312" lon="23.5025494558">
        <ele>28.6</ele>
        <time>2012-04-01T19:14:07Z</time>
      </trkpt>
      <trkpt lat="59.9925299232" lon="23.5022373139">
        <ele>28.6</ele>
        <time>2012-04-01T19:14:10Z</time>
      </trkpt>
      <trkpt lat="59.9923842458" lon="23.5019109227">
        <ele>28.6</ele>
        <time>2012-04-01T19:14:13Z</time>
      </trkpt>
      <trkpt lat="59.9922560865" lon="23.5016117727">
        <ele>28.6</ele>
        <time>2012-04-01T19:14:16Z</time>
      </trkpt>
      <trkpt lat="59.9921328726" lon="23.5012935957">
        <ele>28.6</ele>
        <time>2012-04-01T19:14:19Z</time>
      </trkpt>
      <trkpt lat="59.9920144364" lon="23.5009685457">
        <ele>28.6</ele>
        <time>2012-04-01T19:14:22Z</time>
      </trkpt>
      <trkpt lat="59.991896503" lon="23.5006564037">
        <ele>28.6</ele>
        <time>2012-04-01T19:14:25Z</time>
      </trkpt>
      <trkpt lat="59.9917792402" lon="23.5003681502">
        <ele>28.6</ele>
        <time>2012-04-01T19:14:28Z</time>
      </trkpt>
      <trkpt lat="59.991702965" lon="23.5001660626">
        <ele>28.6</ele>
        <time>2012-04-01T19:14:30Z</time>
      </trkpt>
      <trkpt lat="59.9915072476" lon="23.4997235821">
        <ele>28.6</ele>
        <time>2012-04-01T19:14:35Z</time>
      </trkpt>
      <trkpt lat="59.9913608158" lon="23.4994047346">
        <ele>28.6</ele>
        <time>2012-04-01T19:14:39Z</time>
      </trkpt>
      <trkpt lat="59.9913277073" lon="23.4993374279">
        <ele>28.6</ele>
        <time>2012-04-01T19:14:40Z</time>
      </trkpt>
      <trkpt lat="59.9912021464" lon="23.4990527786">
        <ele>29.4</ele>
        <time>2012-04-01T19:14:44Z</time>
      </trkpt>
      <trkpt lat="59.9911473288" lon="23.4989227753">
        <ele>29.6</ele>
        <time>2012-04-01T19:14:46Z</time>
      </trkpt>
      <trkpt lat="59.9910721432" lon="23.4987366971">
        <ele>30.2</ele>
        <time>2012-04-01T19:14:49Z</time>
      </trkpt>
      <trkpt lat="59.9910510208" lon="23.498679784">
        <ele>30.4</ele>
        <time>2012-04-01T19:14:50Z</time>
      </trkpt>
      <trkpt lat="59.9909100372" lon="23.4983401495">
        <ele>31.6</ele>
        <time>2012-04-01T19:14:56Z</time>
      </trkpt>
      <trkpt lat="59.9907770165" lon="23.4979871876">
        <ele>32.6</ele>
        <time>2012-04-01T19:15:01Z</time>
      </trkpt>
      <trkpt lat="59.9906684709" lon="23.497689714">
        <ele>33.4</ele>
        <time>2012-04-01T19:15:05Z</time>
      </trkpt>
      <trkpt lat="59.9905581651" lon="23.4973857025">
        <ele>34</ele>
        <time>2012-04-01T19:15:09Z</time>
      </trkpt>
      <trkpt lat="59.9904361246" lon="23.497073812">
        <ele>34.4</ele>
        <time>2012-04-01T19:15:13Z</time>
      </trkpt>
      <trkpt lat="59.9903223822" lon="23.4967432299">
        <ele>34.6</ele>
        <time>2012-04-01T19:15:17Z</time>
      </trkpt>
      <trkpt lat="59.9902259904" lon="23.4964064451">
        <ele>34.6</ele>
        <time>2012-04-01T19:15:21Z</time>
      </trkpt>
      <trkpt lat="59.9901305205" lon="23.4960881006">
        <ele>35.2</ele>
        <time>2012-04-01T19:15:25Z</time>
      </trkpt>
      <trkpt lat="59.9900723501" lon="23.4958670699">
        <ele>35.6</ele>
        <time>2012-04-01T19:15:28Z</time>
      </trkpt>
      <trkpt lat="59.9899642236" lon="23.4954661636">
        <ele>36.2</ele>
        <time>2012-04-01T19:15:33Z</time>
      </trkpt>
      <trkpt lat="59.9898674965" lon="23.4951085917">
        <ele>36.6</ele>
        <time>2012-04-01T19:15:37Z</time>
      </trkpt>
      <trkpt lat="59.9897818335" lon="23.4947548756">
        <ele>36.6</ele>
        <time>2012-04-01T19:15:41Z</time>
      </trkpt>
      <trkpt lat="59.9896990203" lon="23.4944059371">
        <ele>36.8</ele>
        <time>2012-04-01T19:15:45Z</time>
      </trkpt>
      <trkpt lat="59.9896106751" lon="23.4940549031">
        <ele>36.8</ele>
        <time>2012-04-01T19:15:49Z</time>
      </trkpt>
      <trkpt lat="59.9895187256" lon="23.493701606">
        <ele>37</ele>
        <time>2012-04-01T19:15:53Z</time>
      </trkpt>
      <trkpt lat="59.989494921" lon="23.4936143504">
        <ele>37</ele>
        <time>2012-04-01T19:15:54Z</time>
      </trkpt>
      <trkpt lat="59.9893766524" lon="23.4931805871">
        <ele>37</ele>
        <time>2012-04-01T19:15:59Z</time>
      </trkpt>
      <trkpt lat="59.9892873852" lon="23.4927914155">
        <ele>37</ele>
        <time>2012-04-01T19:16:03Z</time>
      </trkpt>
      <trkpt lat="59.9892085953" lon="23.4924371126">
        <ele>37.6</ele>
        <time>2012-04-01T19:16:07Z</time>
      </trkpt>
      <trkpt lat="59.9891264527" lon="23.4920280758">
        <ele>38.2</ele>
        <time>2012-04-01T19:16:12Z</time>
      </trkpt>
      <trkpt lat="59.9890599842" lon="23.4916798917">
        <ele>38.4</ele>
        <time>2012-04-01T19:16:16Z</time>
      </trkpt>
      <trkpt lat="59.988985553" lon="23.4911950826">
        <ele>38.6</ele>
        <time>2012-04-01T19:16:21Z</time>
      </trkpt>
      <trkpt lat="59.9889000576" lon="23.4907295519">
        <ele>38.8</ele>
        <time>2012-04-01T19:16:26Z</time>
      </trkpt>
      <trkpt lat="59.9888135564" lon="23.4903656936">
        <ele>38.8</ele>
        <time>2012-04-01T19:16:30Z</time>
      </trkpt>
      <trkpt lat="59.9887588226" lon="23.4901976365">
        <ele>39</ele>
        <time>2012-04-01T19:16:32Z</time>
      </trkpt>
      <trkpt lat="59.9886246284" lon="23.4897799664">
        <ele>39</ele>
        <time>2012-04-01T19:16:37Z</time>
      </trkpt>
      <trkpt lat="59.9885190164" lon="23.4894520665">
        <ele>39</ele>
        <time>2012-04-01T19:16:41Z</time>
      </trkpt>
      <trkpt lat="59.9884008316" lon="23.4891113423">
        <ele>39</ele>
        <time>2012-04-01T19:16:45Z</time>
      </trkpt>
      <trkpt lat="59.9882748517" lon="23.488754441">
        <ele>39</ele>
        <time>2012-04-01T19:16:49Z</time>
      </trkpt>
      <trkpt lat="59.988140406" lon="23.4883996352">
        <ele>39</ele>
        <time>2012-04-01T19:16:53Z</time>
      </trkpt>
      <trkpt lat="59.9880059603" lon="23.4880439073">
        <ele>39</ele>
        <time>2012-04-01T19:16:57Z</time>
      </trkpt>
      <trkpt lat="59.9878758732" lon="23.4876866707">
        <ele>39</ele>
        <time>2012-04-01T19:17:01Z</time>
      </trkpt>
      <trkpt lat="59.9877358117" lon="23.4873199626">
        <ele>39</ele>
        <time>2012-04-01T19:17:05Z</time>
      </trkpt>
      <trkpt lat="59.9875954149" lon="23.48699332">
        <ele>39</ele>
        <time>2012-04-01T19:17:09Z</time>
      </trkpt>
      <trkpt lat="59.9874672556" lon="23.4866334012">
        <ele>39</ele>
        <time>2012-04-01T19:17:13Z</time>
      </trkpt>
      <trkpt lat="59.9873460533" lon="23.4862749911">
        <ele>39</ele>
        <time>2012-04-01T19:17:17Z</time>
      </trkpt>
      <trkpt lat="59.9872384297" lon="23.4858958778">
        <ele>39</ele>
        <time>2012-04-01T19:17:21Z</time>
      </trkpt>
      <trkpt lat="59.9871427923" lon="23.4854976537">
        <ele>39</ele>
        <time>2012-04-01T19:17:25Z</time>
      </trkpt>
      <trkpt lat="59.9871036488" lon="23.4853033613">
        <ele>39</ele>
        <time>2012-04-01T19:17:27Z</time>
      </trkpt>
      <trkpt lat="59.9869960252" lon="23.4848409319">
        <ele>39</ele>
        <time>2012-04-01T19:17:32Z</time>
      </trkpt>
      <trkpt lat="59.9869140502" lon="23.4844740561">
        <ele>39</ele>
        <time>2012-04-01T19:17:36Z</time>
      </trkpt>
      <trkpt lat="59.9868297283" lon="23.4840930988">
        <ele>39</ele>
        <time>2012-04-01T19:17:40Z</time>
      </trkpt>
      <trkpt lat="59.9867454064" lon="23.4836900132">
        <ele>39</ele>
        <time>2012-04-01T19:17:44Z</time>
      </trkpt>
      <trkpt lat="59.9866834641" lon="23.4833943836">
        <ele>38.8</ele>
        <time>2012-04-01T19:17:47Z</time>
      </trkpt>
      <trkpt lat="59.9866625932" lon="23.4832993328">
        <ele>38.6</ele>
        <time>2012-04-01T19:17:48Z</time>
      </trkpt>
      <trkpt lat="59.986641387" lon="23.4831816509">
        <ele>38.4</ele>
        <time>2012-04-01T19:17:49Z</time>
      </trkpt>
      <trkpt lat="59.9866224439" lon="23.4827716084">
        <ele>38</ele>
        <time>2012-04-01T19:17:53Z</time>
      </trkpt>
      <trkpt lat="59.9866415546" lon="23.4825971811">
        <ele>37.8</ele>
        <time>2012-04-01T19:17:55Z</time>
      </trkpt>
      <trkpt lat="59.9866667842" lon="23.4824380088">
        <ele>37.6</ele>
        <time>2012-04-01T19:17:57Z</time>
      </trkpt>
      <trkpt lat="59.9866857273" lon="23.4822884757">
        <ele>37.4</ele>
        <time>2012-04-01T19:17:59Z</time>
      </trkpt>
      <trkpt lat="59.9868252859" lon="23.4815397206">
        <ele>37.2</ele>
        <time>2012-04-01T19:18:09Z</time>
      </trkpt>
      <trkpt lat="59.9868630044" lon="23.4814025088">
        <ele>37.2</ele>
        <time>2012-04-01T19:18:11Z</time>
      </trkpt>
      <trkpt lat="59.9868109528" lon="23.4808858485">
        <ele>37</ele>
        <time>2012-04-01T19:18:18Z</time>
      </trkpt>
      <trkpt lat="59.9866794408" lon="23.4805170449">
        <ele>37</ele>
        <time>2012-04-01T19:18:23Z</time>
      </trkpt>
      <trkpt lat="59.9865149041" lon="23.4802024722">
        <ele>36.4</ele>
        <time>2012-04-01T19:18:28Z</time>
      </trkpt>
      <trkpt lat="59.9863590008" lon="23.4799253666">
        <ele>36</ele>
        <time>2012-04-01T19:18:32Z</time>
      </trkpt>
      <trkpt lat="59.9862058635" lon="23.4796063515">
        <ele>35.6</ele>
        <time>2012-04-01T19:18:36Z</time>
      </trkpt>
      <trkpt lat="59.9860784586" lon="23.4793524637">
        <ele>35.4</ele>
        <time>2012-04-01T19:18:39Z</time>
      </trkpt>
      <trkpt lat="59.985916185" lon="23.4790149246">
        <ele>35.2</ele>
        <time>2012-04-01T19:18:43Z</time>
      </trkpt>
      <trkpt lat="59.9858375628" lon="23.4788527349">
        <ele>35.2</ele>
        <time>2012-04-01T19:18:45Z</time>
      </trkpt>
      <trkpt lat="59.985668919" lon="23.4783941611">
        <ele>34.6</ele>
        <time>2012-04-01T19:18:50Z</time>
      </trkpt>
      <trkpt lat="59.9855368202" lon="23.4780117788">
        <ele>34</ele>
        <time>2012-04-01T19:18:54Z</time>
      </trkpt>
      <trkpt lat="59.9853988541" lon="23.4776619183">
        <ele>33.6</ele>
        <time>2012-04-01T19:18:58Z</time>
      </trkpt>
      <trkpt lat="59.9852799988" lon="23.4773923564">
        <ele>33.4</ele>
        <time>2012-04-01T19:19:01Z</time>
      </trkpt>
      <trkpt lat="59.9851422004" lon="23.4770274085">
        <ele>33.2</ele>
        <time>2012-04-01T19:19:05Z</time>
      </trkpt>
      <trkpt lat="59.9849996242" lon="23.4766461159">
        <ele>33.2</ele>
        <time>2012-04-01T19:19:09Z</time>
      </trkpt>
      <trkpt lat="59.9848606523" lon="23.4762823414">
        <ele>33</ele>
        <time>2012-04-01T19:19:13Z</time>
      </trkpt>
      <trkpt lat="59.9847157293" lon="23.4758917449">
        <ele>33</ele>
        <time>2012-04-01T19:19:17Z</time>
      </trkpt>
      <trkpt lat="59.9845749972" lon="23.4755164872">
        <ele>33</ele>
        <time>2012-04-01T19:19:21Z</time>
      </trkpt>
      <trkpt lat="59.9844610034" lon="23.4752065246">
        <ele>32.4</ele>
        <time>2012-04-01T19:19:24Z</time>
      </trkpt>
      <trkpt lat="59.9843503623" lon="23.4749217914">
        <ele>32</ele>
        <time>2012-04-01T19:19:27Z</time>
      </trkpt>
      <trkpt lat="59.9842454209" lon="23.4746276705">
        <ele>31.8</ele>
        <time>2012-04-01T19:19:30Z</time>
      </trkpt>
      <trkpt lat="59.98417451" lon="23.4744350545">
        <ele>31.6</ele>
        <time>2012-04-01T19:19:32Z</time>
      </trkpt>
      <trkpt lat="59.9840312633" lon="23.4740546839">
        <ele>31.4</ele>
        <time>2012-04-01T19:19:36Z</time>
      </trkpt>
      <trkpt lat="59.9838363003" lon="23.4736200823">
        <ele>31.2</ele>
        <time>2012-04-01T19:19:41Z</time>
      </trkpt>
      <trkpt lat="59.9836907067" lon="23.473278017">
        <ele>31</ele>
        <time>2012-04-01T19:19:45Z</time>
      </trkpt>
      <trkpt lat="59.9835460352" lon="23.4729666294">
        <ele>31</ele>
        <time>2012-04-01T19:19:49Z</time>
      </trkpt>
      <trkpt lat="59.9835091548" lon="23.4728894321">
        <ele>31</ele>
        <time>2012-04-01T19:19:50Z</time>
      </trkpt>
      <trkpt lat="59.9834498109" lon="23.4727391446">
        <ele>31</ele>
        <time>2012-04-01T19:19:52Z</time>
      </trkpt>
      <trkpt lat="59.9833142756" lon="23.4722569339">
        <ele>31</ele>
        <time>2012-04-01T19:19:57Z</time>
      </trkpt>
      <trkpt lat="59.9832202307" lon="23.4718777368">
        <ele>31</ele>
        <time>2012-04-01T19:20:01Z</time>
      </trkpt>
      <trkpt lat="59.9831091705" lon="23.4715160578">
        <ele>31</ele>
        <time>2012-04-01T19:20:05Z</time>
      </trkpt>
      <trkpt lat="59.983008001" lon="23.4711279758">
        <ele>31</ele>
        <time>2012-04-01T19:20:09Z</time>
      </trkpt>
      <trkpt lat="59.9829842802" lon="23.4710407203">
        <ele>31</ele>
        <time>2012-04-01T19:20:10Z</time>
      </trkpt>
      <trkpt lat="59.9829103519" lon="23.4707662968">
        <ele>31</ele>
        <time>2012-04-01T19:20:13Z</time>
      </trkpt>
      <trkpt lat="59.9827984535" lon="23.4703435976">
        <ele>31.8</ele>
        <time>2012-04-01T19:20:18Z</time>
      </trkpt>
      <trkpt lat="59.9827080966" lon="23.4699796555">
        <ele>33</ele>
        <time>2012-04-01T19:20:23Z</time>
      </trkpt>
      <trkpt lat="59.9826939312" lon="23.4699044699">
        <ele>33.2</ele>
        <time>2012-04-01T19:20:24Z</time>
      </trkpt>
      <trkpt lat="59.9826469926" lon="23.4696339022">
        <ele>33.8</ele>
        <time>2012-04-01T19:20:28Z</time>
      </trkpt>
      <trkpt lat="59.9825614134" lon="23.4691596543">
        <ele>35.6</ele>
        <time>2012-04-01T19:20:35Z</time>
      </trkpt>
      <trkpt lat="59.9825052546" lon="23.468765202">
        <ele>36.8</ele>
        <time>2012-04-01T19:20:41Z</time>
      </trkpt>
      <trkpt lat="59.9824792707" lon="23.4685750167">
        <ele>37.6</ele>
        <time>2012-04-01T19:20:44Z</time>
      </trkpt>
      <trkpt lat="59.9824685419" lon="23.4684439238">
        <ele>38</ele>
        <time>2012-04-01T19:20:46Z</time>
      </trkpt>
      <trkpt lat="59.9824303204" lon="23.4680767128">
        <ele>38.6</ele>
        <time>2012-04-01T19:20:51Z</time>
      </trkpt>
      <trkpt lat="59.9823875728" lon="23.4677281934">
        <ele>39</ele>
        <time>2012-04-01T19:20:55Z</time>
      </trkpt>
      <trkpt lat="59.9823436516" lon="23.4673286282">
        <ele>39.2</ele>
        <time>2012-04-01T19:20:59Z</time>
      </trkpt>
      <trkpt lat="59.982279111" lon="23.466798473">
        <ele>39.2</ele>
        <time>2012-04-01T19:21:04Z</time>
      </trkpt>
      <trkpt lat="59.9822271432" lon="23.4663694874">
        <ele>39.4</ele>
        <time>2012-04-01T19:21:08Z</time>
      </trkpt>
      <trkpt lat="59.9821788634" lon="23.4659492189">
        <ele>39.4</ele>
        <time>2012-04-01T19:21:12Z</time>
      </trkpt>
      <trkpt lat="59.9821287397" lon="23.4655084986">
        <ele>39.4</ele>
        <time>2012-04-01T19:21:16Z</time>
      </trkpt>
      <trkpt lat="59.9820757661" lon="23.4650713825">
        <ele>39.4</ele>
        <time>2012-04-01T19:21:20Z</time>
      </trkpt>
      <trkpt lat="59.98206378" lon="23.4649703806">
        <ele>39.4</ele>
        <time>2012-04-01T19:21:21Z</time>
      </trkpt>
      <trkpt lat="59.9820057772" lon="23.4644607611">
        <ele>39.4</ele>
        <time>2012-04-01T19:21:26Z</time>
      </trkpt>
      <trkpt lat="59.9819562402" lon="23.4640519759">
        <ele>39.2</ele>
        <time>2012-04-01T19:21:30Z</time>
      </trkpt>
      <trkpt lat="59.9819032666" lon="23.4636022869">
        <ele>38.6</ele>
        <time>2012-04-01T19:21:34Z</time>
      </trkpt>
      <trkpt lat="59.9818911128" lon="23.4634990219">
        <ele>38.6</ele>
        <time>2012-04-01T19:21:35Z</time>
      </trkpt>
      <trkpt lat="59.9818218783" lon="23.4630458964">
        <ele>38.2</ele>
        <time>2012-04-01T19:21:39Z</time>
      </trkpt>
      <trkpt lat="59.9817996663" lon="23.4628231055">
        <ele>37.6</ele>
        <time>2012-04-01T19:21:41Z</time>
      </trkpt>
      <trkpt lat="59.9817383108" lon="23.4623388831">
        <ele>36.8</ele>
        <time>2012-04-01T19:21:45Z</time>
      </trkpt>
      <trkpt lat="59.9816904501" lon="23.4619609433">
        <ele>36.2</ele>
        <time>2012-04-01T19:21:48Z</time>
      </trkpt>
      <trkpt lat="59.9816455231" lon="23.4615994319">
        <ele>35.4</ele>
        <time>2012-04-01T19:21:51Z</time>
      </trkpt>
      <trkpt lat="59.9815995065" lon="23.461230293">
        <ele>34.8</ele>
        <time>2012-04-01T19:21:54Z</time>
      </trkpt>
      <trkpt lat="59.9815528193" lon="23.4608702904">
        <ele>33.8</ele>
        <time>2012-04-01T19:21:57Z</time>
      </trkpt>
      <trkpt lat="59.9815086467" lon="23.4605214358">
        <ele>33</ele>
        <time>2012-04-01T19:22:00Z</time>
      </trkpt>
      <trkpt lat="59.9814246601" lon="23.4598819806">
        <ele>32.2</ele>
        <time>2012-04-01T19:22:06Z</time>
      </trkpt>
      <trkpt lat="59.9813624664" lon="23.4594027036">
        <ele>31</ele>
        <time>2012-04-01T19:22:10Z</time>
      </trkpt>
      <trkpt lat="59.9813051342" lon="23.4589492428">
        <ele>30.4</ele>
        <time>2012-04-01T19:22:14Z</time>
      </trkpt>
      <trkpt lat="59.9812612968" lon="23.4585932635">
        <ele>29.4</ele>
        <time>2012-04-01T19:22:17Z</time>
      </trkpt>
      <trkpt lat="59.981206563" lon="23.4581705643">
        <ele>28.6</ele>
        <time>2012-04-01T19:22:21Z</time>
      </trkpt>
      <trkpt lat="59.9811566069" lon="23.457806706">
        <ele>28</ele>
        <time>2012-04-01T19:22:24Z</time>
      </trkpt>
      <trkpt lat="59.9810981851" lon="23.4573941489">
        <ele>27</ele>
        <time>2012-04-01T19:22:28Z</time>
      </trkpt>
      <trkpt lat="59.9810334768" lon="23.4569458848">
        <ele>26.2</ele>
        <time>2012-04-01T19:22:32Z</time>
      </trkpt>
      <trkpt lat="59.9809718698" lon="23.4565270413">
        <ele>25.4</ele>
        <time>2012-04-01T19:22:36Z</time>
      </trkpt>
      <trkpt lat="59.9809010428" lon="23.4561159091">
        <ele>24.4</ele>
        <time>2012-04-01T19:22:40Z</time>
      </trkpt>
      <trkpt lat="59.9808298805" lon="23.4556924555">
        <ele>23.8</ele>
        <time>2012-04-01T19:22:44Z</time>
      </trkpt>
      <trkpt lat="59.9807620709" lon="23.4553301898">
        <ele>23.4</ele>
        <time>2012-04-01T19:22:48Z</time>
      </trkpt>
      <trkpt lat="59.9807525993" lon="23.4552361449">
        <ele>23.4</ele>
        <time>2012-04-01T19:22:49Z</time>
      </trkpt>
      <trkpt lat="59.9807904855" lon="23.4549610509">
        <ele>22.8</ele>
        <time>2012-04-01T19:22:52Z</time>
      </trkpt>
      <trkpt lat="59.9809035574" lon="23.4547553591">
        <ele>22.2</ele>
        <time>2012-04-01T19:22:55Z</time>
      </trkpt>
      <trkpt lat="59.9810369972" lon="23.4545101885">
        <ele>21.6</ele>
        <time>2012-04-01T19:22:59Z</time>
      </trkpt>
      <trkpt lat="59.981062562" lon="23.4541397085">
        <ele>21.2</ele>
        <time>2012-04-01T19:23:03Z</time>
      </trkpt>
      <trkpt lat="59.9810478099" lon="23.4540549675">
        <ele>21.2</ele>
        <time>2012-04-01T19:23:04Z</time>
      </trkpt>
      <trkpt lat="59.9809674274" lon="23.4536626946">
        <ele>21</ele>
        <time>2012-04-01T19:23:08Z</time>
      </trkpt>
      <trkpt lat="59.980888889" lon="23.4532580165">
        <ele>20</ele>
        <time>2012-04-01T19:23:12Z</time>
      </trkpt>
      <trkpt lat="59.9808062435" lon="23.4528636481">
        <ele>19.6</ele>
        <time>2012-04-01T19:23:16Z</time>
      </trkpt>
      <trkpt lat="59.980758299" lon="23.4525115245">
        <ele>19.4</ele>
        <time>2012-04-01T19:23:19Z</time>
      </trkpt>
      <trkpt lat="59.9807200776" lon="23.4521414636">
        <ele>18.6</ele>
        <time>2012-04-01T19:23:22Z</time>
      </trkpt>
      <trkpt lat="59.9806888969" lon="23.45171801">
        <ele>18</ele>
        <time>2012-04-01T19:23:25Z</time>
      </trkpt>
      <trkpt lat="59.9806676069" lon="23.4514161778">
        <ele>17.6</ele>
        <time>2012-04-01T19:23:27Z</time>
      </trkpt>
      <trkpt lat="59.9806583868" lon="23.4513017648">
        <ele>17.4</ele>
        <time>2012-04-01T19:23:28Z</time>
      </trkpt>
      <trkpt lat="59.980620333" lon="23.450868253">
        <ele>16.4</ele>
        <time>2012-04-01T19:23:31Z</time>
      </trkpt>
      <trkpt lat="59.980586973" lon="23.4504630719">
        <ele>15.8</ele>
        <time>2012-04-01T19:23:34Z</time>
      </trkpt>
      <trkpt lat="59.9805510146" lon="23.4500622495">
        <ele>15</ele>
        <time>2012-04-01T19:23:37Z</time>
      </trkpt>
      <trkpt lat="59.9805269586" lon="23.4496931944">
        <ele>14.2</ele>
        <time>2012-04-01T19:23:40Z</time>
      </trkpt>
      <trkpt lat="59.9805193311" lon="23.4493137458">
        <ele>13.6</ele>
        <time>2012-04-01T19:23:43Z</time>
      </trkpt>
      <trkpt lat="59.9805232706" lon="23.4488324571">
        <ele>13</ele>
        <time>2012-04-01T19:23:47Z</time>
      </trkpt>
      <trkpt lat="59.9805347538" lon="23.4483704468">
        <ele>12</ele>
        <time>2012-04-01T19:23:51Z</time>
      </trkpt>
      <trkpt lat="59.9805441415" lon="23.4479242782">
        <ele>11.4</ele>
        <time>2012-04-01T19:23:55Z</time>
      </trkpt>
      <trkpt lat="59.9805525234" lon="23.447502501">
        <ele>10.8</ele>
        <time>2012-04-01T19:23:59Z</time>
      </trkpt>
      <trkpt lat="59.9805644257" lon="23.4470970685">
        <ele>10.6</ele>
        <time>2012-04-01T19:24:03Z</time>
      </trkpt>
      <trkpt lat="59.9805765794" lon="23.4466288556">
        <ele>10.4</ele>
        <time>2012-04-01T19:24:07Z</time>
      </trkpt>
      <trkpt lat="59.9805884817" lon="23.4460064995">
        <ele>10.2</ele>
        <time>2012-04-01T19:24:13Z</time>
      </trkpt>
      <trkpt lat="59.9805862186" lon="23.445786307">
        <ele>10.2</ele>
        <time>2012-04-01T19:24:15Z</time>
      </trkpt>
      <trkpt lat="59.9805909125" lon="23.4454850615">
        <ele>10.2</ele>
        <time>2012-04-01T19:24:18Z</time>
      </trkpt>
      <trkpt lat="59.9805636713" lon="23.4449137512">
        <ele>10</ele>
        <time>2012-04-01T19:24:24Z</time>
      </trkpt>
      <trkpt lat="59.9805491706" lon="23.4446617075">
        <ele>10</ele>
        <time>2012-04-01T19:24:27Z</time>
      </trkpt>
      <trkpt lat="59.9804926766" lon="23.4443078237">
        <ele>10.8</ele>
        <time>2012-04-01T19:24:32Z</time>
      </trkpt>
      <trkpt lat="59.9804283036" lon="23.4439250223">
        <ele>11.4</ele>
        <time>2012-04-01T19:24:38Z</time>
      </trkpt>
      <trkpt lat="59.980303078" lon="23.4437010579">
        <ele>11.8</ele>
        <time>2012-04-01T19:24:42Z</time>
      </trkpt>
      <trkpt lat="59.9801993939" lon="23.4435122137">
        <ele>12.4</ele>
        <time>2012-04-01T19:24:45Z</time>
      </trkpt>
      <trkpt lat="59.9801079474" lon="23.4431814639">
        <ele>13</ele>
        <time>2012-04-01T19:24:49Z</time>
      </trkpt>
      <trkpt lat="59.9800319236" lon="23.4428385604">
        <ele>13.4</ele>
        <time>2012-04-01T19:24:53Z</time>
      </trkpt>
      <trkpt lat="59.9799896788" lon="23.4425936413">
        <ele>13.6</ele>
        <time>2012-04-01T19:24:56Z</time>
      </trkpt>
      <trkpt lat="59.9799696461" lon="23.4422286934">
        <ele>14</ele>
        <time>2012-04-01T19:25:00Z</time>
      </trkpt>
      <trkpt lat="59.9800016649" lon="23.4415964467">
        <ele>15.2</ele>
        <time>2012-04-01T19:25:07Z</time>
      </trkpt>
      <trkpt lat="59.9800138187" lon="23.4412200993">
        <ele>15.6</ele>
        <time>2012-04-01T19:25:11Z</time>
      </trkpt>
      <trkpt lat="59.9799823865" lon="23.4405648024">
        <ele>16</ele>
        <time>2012-04-01T19:25:18Z</time>
      </trkpt>
      <trkpt lat="59.9799696461" lon="23.4403833343">
        <ele>16</ele>
        <time>2012-04-01T19:25:20Z</time>
      </trkpt>
      <trkpt lat="59.9799463444" lon="23.4402154448">
        <ele>16</ele>
        <time>2012-04-01T19:25:22Z</time>
      </trkpt>
      <trkpt lat="59.9799888406" lon="23.4397636604">
        <ele>16.2</ele>
        <time>2012-04-01T19:25:27Z</time>
      </trkpt>
      <trkpt lat="59.9800252181" lon="23.4395189927">
        <ele>16.2</ele>
        <time>2012-04-01T19:25:30Z</time>
      </trkpt>
      <trkpt lat="59.9800189316" lon="23.4393700464">
        <ele>16.2</ele>
        <time>2012-04-01T19:25:32Z</time>
      </trkpt>
      <trkpt lat="59.9800475977" lon="23.439079865">
        <ele>16.2</ele>
        <time>2012-04-01T19:25:36Z</time>
      </trkpt>
      <trkpt lat="59.9799911037" lon="23.4388111413">
        <ele>16.4</ele>
        <time>2012-04-01T19:25:40Z</time>
      </trkpt>
      <trkpt lat="59.9799615994" lon="23.4387616881">
        <ele>16.4</ele>
        <time>2012-04-01T19:25:41Z</time>
      </trkpt>
      <trkpt lat="59.9799369566" lon="23.4387017575">
        <ele>16.4</ele>
        <time>2012-04-01T19:25:42Z</time>
      </trkpt>
      <trkpt lat="59.9799460929" lon="23.4384508872">
        <ele>16.4</ele>
        <time>2012-04-01T19:25:46Z</time>
      </trkpt>
      <trkpt lat="59.9799592525" lon="23.4382891166">
        <ele>16.4</ele>
        <time>2012-04-01T19:25:48Z</time>
      </trkpt>
      <trkpt lat="59.9799947918" lon="23.4379399266">
        <ele>16.4</ele>
        <time>2012-04-01T19:25:52Z</time>
      </trkpt>
      <trkpt lat="59.9800917703" lon="23.4373799319">
        <ele>16.4</ele>
        <time>2012-04-01T19:25:57Z</time>
      </trkpt>
      <trkpt lat="59.9801515333" lon="23.4369988907">
        <ele>16.4</ele>
        <time>2012-04-01T19:26:00Z</time>
      </trkpt>
      <trkpt lat="59.9802204325" lon="23.4365831484">
        <ele>16.4</ele>
        <time>2012-04-01T19:26:03Z</time>
      </trkpt>
      <trkpt lat="59.9802837997" lon="23.4362285941">
        <ele>16.4</ele>
        <time>2012-04-01T19:26:06Z</time>
      </trkpt>
      <trkpt lat="59.9803770902" lon="23.4357629795">
        <ele>16.4</ele>
        <time>2012-04-01T19:26:09Z</time>
      </trkpt>
      <trkpt lat="59.9804523597" lon="23.4353805973">
        <ele>16.4</ele>
        <time>2012-04-01T19:26:12Z</time>
      </trkpt>
      <trkpt lat="59.9805255337" lon="23.4350441478">
        <ele>15.8</ele>
        <time>2012-04-01T19:26:15Z</time>
      </trkpt>
      <trkpt lat="59.9806298045" lon="23.4346484383">
        <ele>15.2</ele>
        <time>2012-04-01T19:26:19Z</time>
      </trkpt>
      <trkpt lat="59.9807068342" lon="23.4343585084">
        <ele>15</ele>
        <time>2012-04-01T19:26:22Z</time>
      </trkpt>
      <trkpt lat="59.9807312255" lon="23.4342628709">
        <ele>14.8</ele>
        <time>2012-04-01T19:26:23Z</time>
      </trkpt>
      <trkpt lat="59.9808372565" lon="23.4338613779">
        <ele>14.6</ele>
        <time>2012-04-01T19:26:27Z</time>
      </trkpt>
      <trkpt lat="59.9809345704" lon="23.43348436">
        <ele>14</ele>
        <time>2012-04-01T19:26:31Z</time>
      </trkpt>
      <trkpt lat="59.9810343988" lon="23.4331085156">
        <ele>13.4</ele>
        <time>2012-04-01T19:26:35Z</time>
      </trkpt>
      <trkpt lat="59.9811328023" lon="23.4327421428">
        <ele>13</ele>
        <time>2012-04-01T19:26:39Z</time>
      </trkpt>
      <trkpt lat="59.9812327146" lon="23.4323437511">
        <ele>12.6</ele>
        <time>2012-04-01T19:26:43Z</time>
      </trkpt>
      <trkpt lat="59.9813364825" lon="23.43193396">
        <ele>12.4</ele>
        <time>2012-04-01T19:26:47Z</time>
      </trkpt>
      <trkpt lat="59.9814378197" lon="23.4315335566">
        <ele>12.4</ele>
        <time>2012-04-01T19:26:51Z</time>
      </trkpt>
      <trkpt lat="59.9815411685" lon="23.4311280403">
        <ele>12.2</ele>
        <time>2012-04-01T19:26:55Z</time>
      </trkpt>
      <trkpt lat="59.9816524801" lon="23.4307494299">
        <ele>12.2</ele>
        <time>2012-04-01T19:26:59Z</time>
      </trkpt>
      <trkpt lat="59.9816833255" lon="23.4306635992">
        <ele>12.2</ele>
        <time>2012-04-01T19:27:00Z</time>
      </trkpt>
      <trkpt lat="59.9818676435" lon="23.430428906">
        <ele>12.2</ele>
        <time>2012-04-01T19:27:04Z</time>
      </trkpt>
      <trkpt lat="59.9819771949" lon="23.4304169199">
        <ele>12.2</ele>
        <time>2012-04-01T19:27:06Z</time>
      </trkpt>
      <trkpt lat="59.9823165781" lon="23.4304620983">
        <ele>12.2</ele>
        <time>2012-04-01T19:27:12Z</time>
      </trkpt>
      <trkpt lat="59.9824383671" lon="23.4304719052">
        <ele>12.2</ele>
        <time>2012-04-01T19:27:14Z</time>
      </trkpt>
      <trkpt lat="59.9826108666" lon="23.4302830609">
        <ele>12.2</ele>
        <time>2012-04-01T19:27:18Z</time>
      </trkpt>
      <trkpt lat="59.9826766645" lon="23.4301663011">
        <ele>12.2</ele>
        <time>2012-04-01T19:27:20Z</time>
      </trkpt>
      <trkpt lat="59.9827942625" lon="23.4297460326">
        <ele>12.2</ele>
        <time>2012-04-01T19:27:25Z</time>
      </trkpt>
      <trkpt lat="59.9828087632" lon="23.4296566816">
        <ele>12.2</ele>
        <time>2012-04-01T19:27:26Z</time>
      </trkpt>
      <trkpt lat="59.9828726333" lon="23.4292612235">
        <ele>12.2</ele>
        <time>2012-04-01T19:27:30Z</time>
      </trkpt>
      <trkpt lat="59.9829425384" lon="23.4288699564">
        <ele>12.2</ele>
        <time>2012-04-01T19:27:34Z</time>
      </trkpt>
      <trkpt lat="59.9830144551" lon="23.4284613388">
        <ele>12.2</ele>
        <time>2012-04-01T19:27:38Z</time>
      </trkpt>
      <trkpt lat="59.9830784089" lon="23.4280854944">
        <ele>12.2</ele>
        <time>2012-04-01T19:27:42Z</time>
      </trkpt>
      <trkpt lat="59.9831442907" lon="23.4277160203">
        <ele>12.2</ele>
        <time>2012-04-01T19:27:46Z</time>
      </trkpt>
      <trkpt lat="59.9832115135" lon="23.4273310396">
        <ele>12.2</ele>
        <time>2012-04-01T19:27:50Z</time>
      </trkpt>
      <trkpt lat="59.9832882917" lon="23.4269426223">
        <ele>12.2</ele>
        <time>2012-04-01T19:27:54Z</time>
      </trkpt>
      <trkpt lat="59.9833316261" lon="23.4266626669">
        <ele>12.2</ele>
        <time>2012-04-01T19:27:57Z</time>
      </trkpt>
      <trkpt lat="59.9833984299" lon="23.4262139838">
        <ele>12.2</ele>
        <time>2012-04-01T19:28:02Z</time>
      </trkpt>
      <trkpt lat="59.9833554307" lon="23.4259647061">
        <ele>12.2</ele>
        <time>2012-04-01T19:28:05Z</time>
      </trkpt>
      <trkpt lat="59.9833366553" lon="23.4255925497">
        <ele>12.2</ele>
        <time>2012-04-01T19:28:09Z</time>
      </trkpt>
      <trkpt lat="59.983514603" lon="23.4253826669">
        <ele>11.8</ele>
        <time>2012-04-01T19:28:13Z</time>
      </trkpt>
      <trkpt lat="59.983582245" lon="23.4253866064">
        <ele>11.6</ele>
        <time>2012-04-01T19:28:14Z</time>
      </trkpt>
      <trkpt lat="59.9836985857" lon="23.4253885343">
        <ele>11.2</ele>
        <time>2012-04-01T19:28:16Z</time>
      </trkpt>
      <trkpt lat="59.9839451812" lon="23.4253869417">
        <ele>10.8</ele>
        <time>2012-04-01T19:28:20Z</time>
      </trkpt>
      <trkpt lat="59.984127739" lon="23.4253841757">
        <ele>10.6</ele>
        <time>2012-04-01T19:28:23Z</time>
      </trkpt>
      <trkpt lat="59.9841880887" lon="23.4253643106">
        <ele>10.6</ele>
        <time>2012-04-01T19:28:24Z</time>
      </trkpt>
      <trkpt lat="59.9843070279" lon="23.4251825072">
        <ele>10.4</ele>
        <time>2012-04-01T19:28:27Z</time>
      </trkpt>
      <trkpt lat="59.984424123" lon="23.4250542641">
        <ele>10.4</ele>
        <time>2012-04-01T19:28:30Z</time>
      </trkpt>
      <trkpt lat="59.9845779309" lon="23.4250591256">
        <ele>10.2</ele>
        <time>2012-04-01T19:28:33Z</time>
      </trkpt>
      <trkpt lat="59.9846837104" lon="23.4250740454">
        <ele>10.2</ele>
        <time>2012-04-01T19:28:35Z</time>
      </trkpt>
      <trkpt lat="59.9848997958" lon="23.4250776496">
        <ele>10.2</ele>
        <time>2012-04-01T19:28:39Z</time>
      </trkpt>
      <trkpt lat="59.9851300466" lon="23.4250886299">
        <ele>10</ele>
        <time>2012-04-01T19:28:43Z</time>
      </trkpt>
      <trkpt lat="59.9853542624" lon="23.4250798289">
        <ele>10</ele>
        <time>2012-04-01T19:28:47Z</time>
      </trkpt>
      <trkpt lat="59.9854067331" lon="23.4250784878">
        <ele>10</ele>
        <time>2012-04-01T19:28:48Z</time>
      </trkpt>
      <trkpt lat="59.9856632193" lon="23.4250948325">
        <ele>10</ele>
        <time>2012-04-01T19:28:53Z</time>
      </trkpt>
      <trkpt lat="59.9857177854" lon="23.4250925694">
        <ele>10</ele>
        <time>2012-04-01T19:28:54Z</time>
      </trkpt>
      <trkpt lat="59.9859363854" lon="23.4250704412">
        <ele>10</ele>
        <time>2012-04-01T19:28:58Z</time>
      </trkpt>
      <trkpt lat="59.9861564941" lon="23.4250621431">
        <ele>10</ele>
        <time>2012-04-01T19:29:02Z</time>
      </trkpt>
      <trkpt lat="59.9863878345" lon="23.4250456307">
        <ele>10</ele>
        <time>2012-04-01T19:29:06Z</time>
      </trkpt>
      <trkpt lat="59.9864460887" lon="23.4250488997">
        <ele>10</ele>
        <time>2012-04-01T19:29:07Z</time>
      </trkpt>
      <trkpt lat="59.9865925205" lon="23.4250937428">
        <ele>10</ele>
        <time>2012-04-01T19:29:10Z</time>
      </trkpt>
      <trkpt lat="59.9867019043" lon="23.4251363229">
        <ele>10.4</ele>
        <time>2012-04-01T19:29:12Z</time>
      </trkpt>
      <trkpt lat="59.9869024832" lon="23.4252235785">
        <ele>11</ele>
        <time>2012-04-01T19:29:16Z</time>
      </trkpt>
      <trkpt lat="59.9870184887" lon="23.4252685055">
        <ele>11.2</ele>
        <time>2012-04-01T19:29:18Z</time>
      </trkpt>
      <trkpt lat="59.987304982" lon="23.425413177">
        <ele>11.6</ele>
        <time>2012-04-01T19:29:23Z</time>
      </trkpt>
      <trkpt lat="59.9875318801" lon="23.4255031148">
        <ele>11.8</ele>
        <time>2012-04-01T19:29:27Z</time>
      </trkpt>
      <trkpt lat="59.9877408408" lon="23.4255469522">
        <ele>11.8</ele>
        <time>2012-04-01T19:29:31Z</time>
      </trkpt>
      <trkpt lat="59.9879339598" lon="23.4255863471">
        <ele>12</ele>
        <time>2012-04-01T19:29:35Z</time>
      </trkpt>
      <trkpt lat="59.9881305992" lon="23.4256435117">
        <ele>12</ele>
        <time>2012-04-01T19:29:39Z</time>
      </trkpt>
      <trkpt lat="59.9883280767" lon="23.4256860917">
        <ele>12.4</ele>
        <time>2012-04-01T19:29:43Z</time>
      </trkpt>
      <trkpt lat="59.9885151607" lon="23.4257176915">
        <ele>13</ele>
        <time>2012-04-01T19:29:47Z</time>
      </trkpt>
      <trkpt lat="59.9887379516" lon="23.4257522249">
        <ele>13.4</ele>
        <time>2012-04-01T19:29:52Z</time>
      </trkpt>
      <trkpt lat="59.9889451522" lon="23.4257714195">
        <ele>13.6</ele>
        <time>2012-04-01T19:29:56Z</time>
      </trkpt>
      <trkpt lat="59.989179594" lon="23.4257989121">
        <ele>13.8</ele>
        <time>2012-04-01T19:30:00Z</time>
      </trkpt>
      <trkpt lat="59.9894066596" lon="23.4258296737">
        <ele>14</ele>
        <time>2012-04-01T19:30:04Z</time>
      </trkpt>
      <trkpt lat="59.9895799973" lon="23.4258609381">
        <ele>14</ele>
        <time>2012-04-01T19:30:07Z</time>
      </trkpt>
      <trkpt lat="59.9897027922" lon="23.4258646262">
        <ele>14</ele>
        <time>2012-04-01T19:30:09Z</time>
      </trkpt>
      <trkpt lat="59.9899417601" lon="23.4258880117">
        <ele>14</ele>
        <time>2012-04-01T19:30:13Z</time>
      </trkpt>
      <trkpt lat="59.9901831588" lon="23.425906871">
        <ele>14</ele>
        <time>2012-04-01T19:30:17Z</time>
      </trkpt>
      <trkpt lat="59.990589681" lon="23.4259705734">
        <ele>14.2</ele>
        <time>2012-04-01T19:30:24Z</time>
      </trkpt>
      <trkpt lat="59.9908128072" lon="23.426008711">
        <ele>14.2</ele>
        <time>2012-04-01T19:30:28Z</time>
      </trkpt>
      <trkpt lat="59.9910209298" lon="23.4260399755">
        <ele>14.2</ele>
        <time>2012-04-01T19:30:32Z</time>
      </trkpt>
      <trkpt lat="59.9912289685" lon="23.4260893449">
        <ele>14.2</ele>
        <time>2012-04-01T19:30:36Z</time>
      </trkpt>
      <trkpt lat="59.9914388513" lon="23.4262201026">
        <ele>14.2</ele>
        <time>2012-04-01T19:30:40Z</time>
      </trkpt>
      <trkpt lat="59.9916494046" lon="23.426390758">
        <ele>14.2</ele>
        <time>2012-04-01T19:30:44Z</time>
      </trkpt>
      <trkpt lat="59.9918376621" lon="23.4266064243">
        <ele>14.2</ele>
        <time>2012-04-01T19:30:48Z</time>
      </trkpt>
      <trkpt lat="59.9920189626" lon="23.4268866312">
        <ele>14.2</ele>
        <time>2012-04-01T19:30:52Z</time>
      </trkpt>
      <trkpt lat="59.9922046217" lon="23.4271236714">
        <ele>14.2</ele>
        <time>2012-04-01T19:30:56Z</time>
      </trkpt>
      <trkpt lat="59.9922580144" lon="23.4271699395">
        <ele>14.2</ele>
        <time>2012-04-01T19:30:57Z</time>
      </trkpt>
      <trkpt lat="59.9925492854" lon="23.4272398445">
        <ele>14.2</ele>
        <time>2012-04-01T19:31:02Z</time>
      </trkpt>
      <trkpt lat="59.9926699848" lon="23.4272541776">
        <ele>14.2</ele>
        <time>2012-04-01T19:31:04Z</time>
      </trkpt>
      <trkpt lat="59.9929441567" lon="23.4273597057">
        <ele>14.2</ele>
        <time>2012-04-01T19:31:08Z</time>
      </trkpt>
      <trkpt lat="59.9931415505" lon="23.427399855">
        <ele>14.2</ele>
        <time>2012-04-01T19:31:11Z</time>
      </trkpt>
      <trkpt lat="59.9933277963" lon="23.4274597018">
        <ele>14.2</ele>
        <time>2012-04-01T19:31:14Z</time>
      </trkpt>
      <trkpt lat="59.9935059116" lon="23.4275280142">
        <ele>14.2</ele>
        <time>2012-04-01T19:31:17Z</time>
      </trkpt>
      <trkpt lat="59.9935630762" lon="23.4275622962">
        <ele>14.2</ele>
        <time>2012-04-01T19:31:18Z</time>
      </trkpt>
      <trkpt lat="59.9937401019" lon="23.4276991726">
        <ele>14.2</ele>
        <time>2012-04-01T19:31:21Z</time>
      </trkpt>
      <trkpt lat="59.9939476378" lon="23.4278808922">
        <ele>14.2</ele>
        <time>2012-04-01T19:31:24Z</time>
      </trkpt>
      <trkpt lat="59.9941565985" lon="23.4280678924">
        <ele>13.8</ele>
        <time>2012-04-01T19:31:27Z</time>
      </trkpt>
      <trkpt lat="59.9943720972" lon="23.428257491">
        <ele>13.2</ele>
        <time>2012-04-01T19:31:30Z</time>
      </trkpt>
      <trkpt lat="59.9945839078" lon="23.4284404679">
        <ele>13</ele>
        <time>2012-04-01T19:31:33Z</time>
      </trkpt>
      <trkpt lat="59.9947810501" lon="23.4286181642">
        <ele>12</ele>
        <time>2012-04-01T19:31:36Z</time>
      </trkpt>
      <trkpt lat="59.9949828024" lon="23.4287901607">
        <ele>11.4</ele>
        <time>2012-04-01T19:31:39Z</time>
      </trkpt>
      <trkpt lat="59.9951660308" lon="23.4289505065">
        <ele>11</ele>
        <time>2012-04-01T19:31:42Z</time>
      </trkpt>
      <trkpt lat="59.9952222733" lon="23.4290023066">
        <ele>10.8</ele>
        <time>2012-04-01T19:31:43Z</time>
      </trkpt>
      <trkpt lat="59.9953333335" lon="23.4291046496">
        <ele>10.6</ele>
        <time>2012-04-01T19:31:45Z</time>
      </trkpt>
      <trkpt lat="59.9955469881" lon="23.4292919013">
        <ele>10.4</ele>
        <time>2012-04-01T19:31:49Z</time>
      </trkpt>
      <trkpt lat="59.9957543563" lon="23.4294844335">
        <ele>10.2</ele>
        <time>2012-04-01T19:31:53Z</time>
      </trkpt>
      <trkpt lat="59.9959677595" lon="23.4296628842">
        <ele>10</ele>
        <time>2012-04-01T19:31:57Z</time>
      </trkpt>
      <trkpt lat="59.9961700147" lon="23.4298476212">
        <ele>10</ele>
        <time>2012-04-01T19:32:01Z</time>
      </trkpt>
      <trkpt lat="59.9963598648" lon="23.4300166003">
        <ele>9.8</ele>
        <time>2012-04-01T19:32:05Z</time>
      </trkpt>
      <trkpt lat="59.9965390698" lon="23.4301798798">
        <ele>9.8</ele>
        <time>2012-04-01T19:32:09Z</time>
      </trkpt>
      <trkpt lat="59.9965745252" lon="23.4302162572">
        <ele>9.8</ele>
        <time>2012-04-01T19:32:10Z</time>
      </trkpt>
      <trkpt lat="59.9966956437" lon="23.4306088654">
        <ele>10.6</ele>
        <time>2012-04-01T19:32:21Z</time>
      </trkpt>
      <trkpt lat="59.9966844119" lon="23.430650272">
        <ele>10.6</ele>
        <time>2012-04-01T19:32:22Z</time>
      </trkpt>
      <trkpt lat="59.9965891936" lon="23.4309699577">
        <ele>11.2</ele>
        <time>2012-04-01T19:32:28Z</time>
      </trkpt>
      <trkpt lat="59.996564467" lon="23.4310060836">
        <ele>11.4</ele>
        <time>2012-04-01T19:32:29Z</time>
      </trkpt>
      <trkpt lat="59.9964233158" lon="23.4309854642">
        <ele>12.2</ele>
        <time>2012-04-01T19:32:35Z</time>
      </trkpt>
      <trkpt lat="59.996382915" lon="23.4308478334">
        <ele>12.8</ele>
        <time>2012-04-01T19:32:39Z</time>
      </trkpt>
      <trkpt lat="59.9963790593" lon="23.4307717257">
        <ele>13.2</ele>
        <time>2012-04-01T19:32:42Z</time>
      </trkpt>
      <trkpt lat="59.9963623793" lon="23.4307565545">
        <ele>13.8</ele>
        <time>2012-04-01T19:32:55Z</time>
      </trkpt>
      <trkpt lat="59.9963715156" lon="23.4306795248">
        <ele>13.8</ele>
        <time>2012-04-01T19:33:00Z</time>
      </trkpt>
      <trkpt lat="59.9963577693" lon="23.4306812012">
        <ele>13.8</ele>
        <time>2012-04-01T19:33:09Z</time>
      </trkpt>
    </trkseg>
  </trk>
</gpx>